<gpx creator="Cyclotour.ca" version="1.1" xmlns:gpsies="http://www.gpsies.com/GPX/1/0" xmlns:xsi="http://www.w3.org/2001/XMLSchema-instance" xmlns="http://www.topografix.com/GPX/1/1" xsi:schemaLocation="http://www.topografix.com/GPX/1/1 http://www.topografix.com/GPX/1/1/gpx.xsd http://www.gpsies.com/GPX/1/0 http://www.gpsies.com/gpsies.xsd">
<trk>
<name>Saint Pierre-les-Becquets</name>
<trkseg>
<trkpt lat="46.495530000" lon="-72.193780000">
<ele>0</ele>
<time>2026-09-04T06:34:31Z</time>
</trkpt>
<trkpt lat="46.492560000" lon="-72.189630000">
<ele>0</ele>
<time>2026-09-04T06:34:32Z</time>
</trkpt>
<trkpt lat="46.491930000" lon="-72.188710000">
<ele>0</ele>
<time>2026-09-04T06:34:33Z</time>
</trkpt>
<trkpt lat="46.491790000" lon="-72.188530000">
<ele>0</ele>
<time>2026-09-04T06:34:34Z</time>
</trkpt>
<trkpt lat="46.491430000" lon="-72.188000000">
<ele>0</ele>
<time>2026-09-04T06:34:35Z</time>
</trkpt>
<trkpt lat="46.491050000" lon="-72.187470000">
<ele>0</ele>
<time>2026-09-04T06:34:36Z</time>
</trkpt>
<trkpt lat="46.489860000" lon="-72.185810000">
<ele>0</ele>
<time>2026-09-04T06:34:37Z</time>
</trkpt>
<trkpt lat="46.489370000" lon="-72.185090000">
<ele>0</ele>
<time>2026-09-04T06:34:38Z</time>
</trkpt>
<trkpt lat="46.489160000" lon="-72.184840000">
<ele>0</ele>
<time>2026-09-04T06:34:39Z</time>
</trkpt>
<trkpt lat="46.489070000" lon="-72.184720000">
<ele>0</ele>
<time>2026-09-04T06:34:40Z</time>
</trkpt>
<trkpt lat="46.488970000" lon="-72.184620000">
<ele>0</ele>
<time>2026-09-04T06:34:41Z</time>
</trkpt>
<trkpt lat="46.488760000" lon="-72.184420000">
<ele>0</ele>
<time>2026-09-04T06:34:42Z</time>
</trkpt>
<trkpt lat="46.488460000" lon="-72.184180000">
<ele>0</ele>
<time>2026-09-04T06:34:43Z</time>
</trkpt>
<trkpt lat="46.487980000" lon="-72.183880000">
<ele>0</ele>
<time>2026-09-04T06:34:44Z</time>
</trkpt>
<trkpt lat="46.487700000" lon="-72.183760000">
<ele>0</ele>
<time>2026-09-04T06:34:45Z</time>
</trkpt>
<trkpt lat="46.487470000" lon="-72.183700000">
<ele>0</ele>
<time>2026-09-04T06:34:46Z</time>
</trkpt>
<trkpt lat="46.487270000" lon="-72.183630000">
<ele>0</ele>
<time>2026-09-04T06:34:47Z</time>
</trkpt>
<trkpt lat="46.486470000" lon="-72.183500000">
<ele>0</ele>
<time>2026-09-04T06:34:48Z</time>
</trkpt>
<trkpt lat="46.485000000" lon="-72.183520000">
<ele>0</ele>
<time>2026-09-04T06:34:49Z</time>
</trkpt>
<trkpt lat="46.484760000" lon="-72.183490000">
<ele>0</ele>
<time>2026-09-04T06:34:50Z</time>
</trkpt>
<trkpt lat="46.484190000" lon="-72.183370000">
<ele>0</ele>
<time>2026-09-04T06:34:51Z</time>
</trkpt>
<trkpt lat="46.483760000" lon="-72.183190000">
<ele>0</ele>
<time>2026-09-04T06:34:52Z</time>
</trkpt>
<trkpt lat="46.483510000" lon="-72.183020000">
<ele>0</ele>
<time>2026-09-04T06:34:53Z</time>
</trkpt>
<trkpt lat="46.483150000" lon="-72.182740000">
<ele>0</ele>
<time>2026-09-04T06:34:54Z</time>
</trkpt>
<trkpt lat="46.482720000" lon="-72.182310000">
<ele>0</ele>
<time>2026-09-04T06:34:55Z</time>
</trkpt>
<trkpt lat="46.482100000" lon="-72.181500000">
<ele>0</ele>
<time>2026-09-04T06:34:56Z</time>
</trkpt>
<trkpt lat="46.481870000" lon="-72.181180000">
<ele>0</ele>
<time>2026-09-04T06:34:57Z</time>
</trkpt>
<trkpt lat="46.481440000" lon="-72.180560000">
<ele>0</ele>
<time>2026-09-04T06:34:58Z</time>
</trkpt>
<trkpt lat="46.480930000" lon="-72.179850000">
<ele>0</ele>
<time>2026-09-04T06:34:59Z</time>
</trkpt>
<trkpt lat="46.478730000" lon="-72.176750000">
<ele>0</ele>
<time>2026-09-04T06:35:00Z</time>
</trkpt>
<trkpt lat="46.474450000" lon="-72.170710000">
<ele>0</ele>
<time>2026-09-04T06:35:01Z</time>
</trkpt>
<trkpt lat="46.472130000" lon="-72.167430000">
<ele>0</ele>
<time>2026-09-04T06:35:02Z</time>
</trkpt>
<trkpt lat="46.470780000" lon="-72.165520000">
<ele>0</ele>
<time>2026-09-04T06:35:03Z</time>
</trkpt>
<trkpt lat="46.470160000" lon="-72.164670000">
<ele>0</ele>
<time>2026-09-04T06:35:04Z</time>
</trkpt>
<trkpt lat="46.470160000" lon="-72.164670000">
<ele>0</ele>
<time>2026-09-04T06:35:05Z</time>
</trkpt>
<trkpt lat="46.469680000" lon="-72.164090000">
<ele>0</ele>
<time>2026-09-04T06:35:06Z</time>
</trkpt>
<trkpt lat="46.469480000" lon="-72.163870000">
<ele>0</ele>
<time>2026-09-04T06:35:07Z</time>
</trkpt>
<trkpt lat="46.469280000" lon="-72.163720000">
<ele>0</ele>
<time>2026-09-04T06:35:08Z</time>
</trkpt>
<trkpt lat="46.468870000" lon="-72.163470000">
<ele>0</ele>
<time>2026-09-04T06:35:09Z</time>
</trkpt>
<trkpt lat="46.468480000" lon="-72.163320000">
<ele>0</ele>
<time>2026-09-04T06:35:10Z</time>
</trkpt>
<trkpt lat="46.468160000" lon="-72.163250000">
<ele>0</ele>
<time>2026-09-04T06:35:11Z</time>
</trkpt>
<trkpt lat="46.467840000" lon="-72.163200000">
<ele>0</ele>
<time>2026-09-04T06:35:12Z</time>
</trkpt>
<trkpt lat="46.467550000" lon="-72.163200000">
<ele>0</ele>
<time>2026-09-04T06:35:13Z</time>
</trkpt>
<trkpt lat="46.467180000" lon="-72.163290000">
<ele>0</ele>
<time>2026-09-04T06:35:14Z</time>
</trkpt>
<trkpt lat="46.466630000" lon="-72.163500000">
<ele>0</ele>
<time>2026-09-04T06:35:15Z</time>
</trkpt>
<trkpt lat="46.466220000" lon="-72.163660000">
<ele>0</ele>
<time>2026-09-04T06:35:16Z</time>
</trkpt>
<trkpt lat="46.465930000" lon="-72.163740000">
<ele>0</ele>
<time>2026-09-04T06:35:17Z</time>
</trkpt>
<trkpt lat="46.465750000" lon="-72.163770000">
<ele>0</ele>
<time>2026-09-04T06:35:18Z</time>
</trkpt>
<trkpt lat="46.465750000" lon="-72.163770000">
<ele>0</ele>
<time>2026-09-04T06:35:19Z</time>
</trkpt>
<trkpt lat="46.465450000" lon="-72.163760000">
<ele>0</ele>
<time>2026-09-04T06:35:20Z</time>
</trkpt>
<trkpt lat="46.465230000" lon="-72.163710000">
<ele>0</ele>
<time>2026-09-04T06:35:21Z</time>
</trkpt>
<trkpt lat="46.464960000" lon="-72.163580000">
<ele>0</ele>
<time>2026-09-04T06:35:22Z</time>
</trkpt>
<trkpt lat="46.465590000" lon="-72.162670000">
<ele>0</ele>
<time>2026-09-04T06:35:23Z</time>
</trkpt>
<trkpt lat="46.465590000" lon="-72.162670000">
<ele>0</ele>
<time>2026-09-04T06:35:24Z</time>
</trkpt>
<trkpt lat="46.466370000" lon="-72.161540000">
<ele>0</ele>
<time>2026-09-04T06:35:25Z</time>
</trkpt>
<trkpt lat="46.468100000" lon="-72.159120000">
<ele>0</ele>
<time>2026-09-04T06:35:26Z</time>
</trkpt>
<trkpt lat="46.468680000" lon="-72.158270000">
<ele>0</ele>
<time>2026-09-04T06:35:27Z</time>
</trkpt>
<trkpt lat="46.470710000" lon="-72.155230000">
<ele>0</ele>
<time>2026-09-04T06:35:28Z</time>
</trkpt>
<trkpt lat="46.472120000" lon="-72.153120000">
<ele>0</ele>
<time>2026-09-04T06:35:29Z</time>
</trkpt>
<trkpt lat="46.473000000" lon="-72.151820000">
<ele>0</ele>
<time>2026-09-04T06:35:30Z</time>
</trkpt>
<trkpt lat="46.473700000" lon="-72.150760000">
<ele>0</ele>
<time>2026-09-04T06:35:31Z</time>
</trkpt>
<trkpt lat="46.474080000" lon="-72.150280000">
<ele>0</ele>
<time>2026-09-04T06:35:32Z</time>
</trkpt>
<trkpt lat="46.474580000" lon="-72.149690000">
<ele>0</ele>
<time>2026-09-04T06:35:33Z</time>
</trkpt>
<trkpt lat="46.475300000" lon="-72.148840000">
<ele>0</ele>
<time>2026-09-04T06:35:34Z</time>
</trkpt>
<trkpt lat="46.475850000" lon="-72.148250000">
<ele>0</ele>
<time>2026-09-04T06:35:35Z</time>
</trkpt>
<trkpt lat="46.476130000" lon="-72.147900000">
<ele>0</ele>
<time>2026-09-04T06:35:36Z</time>
</trkpt>
<trkpt lat="46.476400000" lon="-72.147560000">
<ele>0</ele>
<time>2026-09-04T06:35:37Z</time>
</trkpt>
<trkpt lat="46.476830000" lon="-72.146910000">
<ele>0</ele>
<time>2026-09-04T06:35:38Z</time>
</trkpt>
<trkpt lat="46.477140000" lon="-72.146420000">
<ele>0</ele>
<time>2026-09-04T06:35:39Z</time>
</trkpt>
<trkpt lat="46.477300000" lon="-72.146140000">
<ele>0</ele>
<time>2026-09-04T06:35:40Z</time>
</trkpt>
<trkpt lat="46.478160000" lon="-72.144590000">
<ele>0</ele>
<time>2026-09-04T06:35:41Z</time>
</trkpt>
<trkpt lat="46.479030000" lon="-72.143070000">
<ele>0</ele>
<time>2026-09-04T06:35:42Z</time>
</trkpt>
<trkpt lat="46.479780000" lon="-72.141790000">
<ele>0</ele>
<time>2026-09-04T06:35:43Z</time>
</trkpt>
<trkpt lat="46.480240000" lon="-72.140940000">
<ele>0</ele>
<time>2026-09-04T06:35:44Z</time>
</trkpt>
<trkpt lat="46.480690000" lon="-72.139980000">
<ele>0</ele>
<time>2026-09-04T06:35:45Z</time>
</trkpt>
<trkpt lat="46.481390000" lon="-72.138250000">
<ele>0</ele>
<time>2026-09-04T06:35:46Z</time>
</trkpt>
<trkpt lat="46.481820000" lon="-72.137150000">
<ele>0</ele>
<time>2026-09-04T06:35:47Z</time>
</trkpt>
<trkpt lat="46.482970000" lon="-72.134230000">
<ele>0</ele>
<time>2026-09-04T06:35:48Z</time>
</trkpt>
<trkpt lat="46.483270000" lon="-72.133380000">
<ele>0</ele>
<time>2026-09-04T06:35:49Z</time>
</trkpt>
<trkpt lat="46.483770000" lon="-72.131600000">
<ele>0</ele>
<time>2026-09-04T06:35:50Z</time>
</trkpt>
<trkpt lat="46.484330000" lon="-72.129610000">
<ele>0</ele>
<time>2026-09-04T06:35:51Z</time>
</trkpt>
<trkpt lat="46.484550000" lon="-72.128930000">
<ele>0</ele>
<time>2026-09-04T06:35:52Z</time>
</trkpt>
<trkpt lat="46.484710000" lon="-72.128540000">
<ele>0</ele>
<time>2026-09-04T06:35:53Z</time>
</trkpt>
<trkpt lat="46.484970000" lon="-72.128050000">
<ele>0</ele>
<time>2026-09-04T06:35:54Z</time>
</trkpt>
<trkpt lat="46.485060000" lon="-72.127890000">
<ele>0</ele>
<time>2026-09-04T06:35:55Z</time>
</trkpt>
<trkpt lat="46.485230000" lon="-72.127630000">
<ele>0</ele>
<time>2026-09-04T06:35:56Z</time>
</trkpt>
<trkpt lat="46.485820000" lon="-72.126820000">
<ele>0</ele>
<time>2026-09-04T06:35:57Z</time>
</trkpt>
<trkpt lat="46.487110000" lon="-72.125010000">
<ele>0</ele>
<time>2026-09-04T06:35:58Z</time>
</trkpt>
<trkpt lat="46.487900000" lon="-72.123890000">
<ele>0</ele>
<time>2026-09-04T06:35:59Z</time>
</trkpt>
<trkpt lat="46.489360000" lon="-72.121850000">
<ele>0</ele>
<time>2026-09-04T06:36:00Z</time>
</trkpt>
<trkpt lat="46.491600000" lon="-72.118670000">
<ele>0</ele>
<time>2026-09-04T06:36:01Z</time>
</trkpt>
<trkpt lat="46.492850000" lon="-72.116840000">
<ele>0</ele>
<time>2026-09-04T06:36:02Z</time>
</trkpt>
<trkpt lat="46.494090000" lon="-72.115030000">
<ele>0</ele>
<time>2026-09-04T06:36:03Z</time>
</trkpt>
<trkpt lat="46.495400000" lon="-72.113090000">
<ele>0</ele>
<time>2026-09-04T06:36:04Z</time>
</trkpt>
<trkpt lat="46.496520000" lon="-72.111460000">
<ele>0</ele>
<time>2026-09-04T06:36:05Z</time>
</trkpt>
<trkpt lat="46.496680000" lon="-72.111220000">
<ele>0</ele>
<time>2026-09-04T06:36:06Z</time>
</trkpt>
<trkpt lat="46.497080000" lon="-72.110730000">
<ele>0</ele>
<time>2026-09-04T06:36:07Z</time>
</trkpt>
<trkpt lat="46.497400000" lon="-72.110430000">
<ele>0</ele>
<time>2026-09-04T06:36:08Z</time>
</trkpt>
<trkpt lat="46.497740000" lon="-72.110210000">
<ele>0</ele>
<time>2026-09-04T06:36:09Z</time>
</trkpt>
<trkpt lat="46.498190000" lon="-72.110000000">
<ele>0</ele>
<time>2026-09-04T06:36:10Z</time>
</trkpt>
<trkpt lat="46.498490000" lon="-72.109820000">
<ele>0</ele>
<time>2026-09-04T06:36:11Z</time>
</trkpt>
<trkpt lat="46.498860000" lon="-72.109570000">
<ele>0</ele>
<time>2026-09-04T06:36:12Z</time>
</trkpt>
<trkpt lat="46.498970000" lon="-72.109460000">
<ele>0</ele>
<time>2026-09-04T06:36:13Z</time>
</trkpt>
<trkpt lat="46.499260000" lon="-72.109050000">
<ele>0</ele>
<time>2026-09-04T06:36:14Z</time>
</trkpt>
<trkpt lat="46.499550000" lon="-72.108580000">
<ele>0</ele>
<time>2026-09-04T06:36:15Z</time>
</trkpt>
<trkpt lat="46.500140000" lon="-72.107520000">
<ele>0</ele>
<time>2026-09-04T06:36:16Z</time>
</trkpt>
<trkpt lat="46.500470000" lon="-72.106850000">
<ele>0</ele>
<time>2026-09-04T06:36:17Z</time>
</trkpt>
<trkpt lat="46.501010000" lon="-72.105800000">
<ele>0</ele>
<time>2026-09-04T06:36:18Z</time>
</trkpt>
<trkpt lat="46.501660000" lon="-72.104550000">
<ele>0</ele>
<time>2026-09-04T06:36:19Z</time>
</trkpt>
<trkpt lat="46.502240000" lon="-72.103460000">
<ele>0</ele>
<time>2026-09-04T06:36:20Z</time>
</trkpt>
<trkpt lat="46.502740000" lon="-72.102460000">
<ele>0</ele>
<time>2026-09-04T06:36:21Z</time>
</trkpt>
<trkpt lat="46.503180000" lon="-72.101480000">
<ele>0</ele>
<time>2026-09-04T06:36:22Z</time>
</trkpt>
<trkpt lat="46.503420000" lon="-72.100930000">
<ele>0</ele>
<time>2026-09-04T06:36:23Z</time>
</trkpt>
<trkpt lat="46.504260000" lon="-72.098920000">
<ele>0</ele>
<time>2026-09-04T06:36:24Z</time>
</trkpt>
<trkpt lat="46.505450000" lon="-72.096140000">
<ele>0</ele>
<time>2026-09-04T06:36:25Z</time>
</trkpt>
<trkpt lat="46.507520000" lon="-72.091100000">
<ele>0</ele>
<time>2026-09-04T06:36:26Z</time>
</trkpt>
<trkpt lat="46.507900000" lon="-72.090180000">
<ele>0</ele>
<time>2026-09-04T06:36:27Z</time>
</trkpt>
<trkpt lat="46.509900000" lon="-72.085440000">
<ele>0</ele>
<time>2026-09-04T06:36:28Z</time>
</trkpt>
<trkpt lat="46.510650000" lon="-72.083620000">
<ele>0</ele>
<time>2026-09-04T06:36:29Z</time>
</trkpt>
<trkpt lat="46.511110000" lon="-72.082510000">
<ele>0</ele>
<time>2026-09-04T06:36:30Z</time>
</trkpt>
<trkpt lat="46.513290000" lon="-72.077360000">
<ele>0</ele>
<time>2026-09-04T06:36:31Z</time>
</trkpt>
<trkpt lat="46.514800000" lon="-72.073790000">
<ele>0</ele>
<time>2026-09-04T06:36:32Z</time>
</trkpt>
<trkpt lat="46.515360000" lon="-72.072440000">
<ele>0</ele>
<time>2026-09-04T06:36:33Z</time>
</trkpt>
<trkpt lat="46.515360000" lon="-72.072440000">
<ele>0</ele>
<time>2026-09-04T06:36:34Z</time>
</trkpt>
<trkpt lat="46.516200000" lon="-72.070360000">
<ele>0</ele>
<time>2026-09-04T06:36:35Z</time>
</trkpt>
<trkpt lat="46.516770000" lon="-72.069000000">
<ele>0</ele>
<time>2026-09-04T06:36:36Z</time>
</trkpt>
<trkpt lat="46.517310000" lon="-72.067760000">
<ele>0</ele>
<time>2026-09-04T06:36:37Z</time>
</trkpt>
<trkpt lat="46.517390000" lon="-72.067560000">
<ele>0</ele>
<time>2026-09-04T06:36:38Z</time>
</trkpt>
<trkpt lat="46.516870000" lon="-72.066840000">
<ele>0</ele>
<time>2026-09-04T06:36:39Z</time>
</trkpt>
<trkpt lat="46.516580000" lon="-72.066450000">
<ele>0</ele>
<time>2026-09-04T06:36:40Z</time>
</trkpt>
<trkpt lat="46.516580000" lon="-72.066450000">
<ele>0</ele>
<time>2026-09-04T06:36:41Z</time>
</trkpt>
<trkpt lat="46.515120000" lon="-72.064460000">
<ele>0</ele>
<time>2026-09-04T06:36:42Z</time>
</trkpt>
<trkpt lat="46.512840000" lon="-72.061250000">
<ele>0</ele>
<time>2026-09-04T06:36:43Z</time>
</trkpt>
<trkpt lat="46.511150000" lon="-72.058900000">
<ele>0</ele>
<time>2026-09-04T06:36:44Z</time>
</trkpt>
<trkpt lat="46.509600000" lon="-72.056720000">
<ele>0</ele>
<time>2026-09-04T06:36:45Z</time>
</trkpt>
<trkpt lat="46.508690000" lon="-72.055450000">
<ele>0</ele>
<time>2026-09-04T06:36:46Z</time>
</trkpt>
<trkpt lat="46.508600000" lon="-72.055210000">
<ele>0</ele>
<time>2026-09-04T06:36:47Z</time>
</trkpt>
<trkpt lat="46.508300000" lon="-72.054790000">
<ele>0</ele>
<time>2026-09-04T06:36:48Z</time>
</trkpt>
<trkpt lat="46.507260000" lon="-72.053340000">
<ele>0</ele>
<time>2026-09-04T06:36:49Z</time>
</trkpt>
<trkpt lat="46.505830000" lon="-72.051340000">
<ele>0</ele>
<time>2026-09-04T06:36:50Z</time>
</trkpt>
<trkpt lat="46.504370000" lon="-72.049310000">
<ele>0</ele>
<time>2026-09-04T06:36:51Z</time>
</trkpt>
<trkpt lat="46.501600000" lon="-72.045300000">
<ele>0</ele>
<time>2026-09-04T06:36:52Z</time>
</trkpt>
<trkpt lat="46.500200000" lon="-72.043280000">
<ele>0</ele>
<time>2026-09-04T06:36:53Z</time>
</trkpt>
<trkpt lat="46.499690000" lon="-72.042530000">
<ele>0</ele>
<time>2026-09-04T06:36:54Z</time>
</trkpt>
<trkpt lat="46.499320000" lon="-72.041960000">
<ele>0</ele>
<time>2026-09-04T06:36:55Z</time>
</trkpt>
<trkpt lat="46.498350000" lon="-72.040420000">
<ele>0</ele>
<time>2026-09-04T06:36:56Z</time>
</trkpt>
<trkpt lat="46.497770000" lon="-72.039520000">
<ele>0</ele>
<time>2026-09-04T06:36:57Z</time>
</trkpt>
<trkpt lat="46.496850000" lon="-72.038160000">
<ele>0</ele>
<time>2026-09-04T06:36:58Z</time>
</trkpt>
<trkpt lat="46.496600000" lon="-72.037790000">
<ele>0</ele>
<time>2026-09-04T06:36:59Z</time>
</trkpt>
<trkpt lat="46.496100000" lon="-72.037040000">
<ele>0</ele>
<time>2026-09-04T06:37:00Z</time>
</trkpt>
<trkpt lat="46.496200000" lon="-72.036690000">
<ele>0</ele>
<time>2026-09-04T06:37:01Z</time>
</trkpt>
<trkpt lat="46.496200000" lon="-72.036690000">
<ele>0</ele>
<time>2026-09-04T06:37:02Z</time>
</trkpt>
<trkpt lat="46.497010000" lon="-72.033990000">
<ele>0</ele>
<time>2026-09-04T06:37:03Z</time>
</trkpt>
<trkpt lat="46.497340000" lon="-72.032980000">
<ele>0</ele>
<time>2026-09-04T06:37:04Z</time>
</trkpt>
<trkpt lat="46.497430000" lon="-72.032750000">
<ele>0</ele>
<time>2026-09-04T06:37:05Z</time>
</trkpt>
<trkpt lat="46.497650000" lon="-72.032140000">
<ele>0</ele>
<time>2026-09-04T06:37:06Z</time>
</trkpt>
<trkpt lat="46.497580000" lon="-72.032040000">
<ele>0</ele>
<time>2026-09-04T06:37:07Z</time>
</trkpt>
<trkpt lat="46.497410000" lon="-72.031810000">
<ele>0</ele>
<time>2026-09-04T06:37:08Z</time>
</trkpt>
<trkpt lat="46.497750000" lon="-72.030320000">
<ele>0</ele>
<time>2026-09-04T06:37:09Z</time>
</trkpt>
<trkpt lat="46.498020000" lon="-72.029070000">
<ele>0</ele>
<time>2026-09-04T06:37:10Z</time>
</trkpt>
<trkpt lat="46.498080000" lon="-72.028830000">
<ele>0</ele>
<time>2026-09-04T06:37:11Z</time>
</trkpt>
<trkpt lat="46.498230000" lon="-72.028350000">
<ele>0</ele>
<time>2026-09-04T06:37:12Z</time>
</trkpt>
<trkpt lat="46.498440000" lon="-72.027940000">
<ele>0</ele>
<time>2026-09-04T06:37:13Z</time>
</trkpt>
<trkpt lat="46.498620000" lon="-72.027670000">
<ele>0</ele>
<time>2026-09-04T06:37:14Z</time>
</trkpt>
<trkpt lat="46.498820000" lon="-72.027370000">
<ele>0</ele>
<time>2026-09-04T06:37:15Z</time>
</trkpt>
<trkpt lat="46.499370000" lon="-72.026700000">
<ele>0</ele>
<time>2026-09-04T06:37:16Z</time>
</trkpt>
<trkpt lat="46.499780000" lon="-72.026350000">
<ele>0</ele>
<time>2026-09-04T06:37:17Z</time>
</trkpt>
<trkpt lat="46.499780000" lon="-72.026350000">
<ele>0</ele>
<time>2026-09-04T06:37:18Z</time>
</trkpt>
<trkpt lat="46.500080000" lon="-72.026070000">
<ele>0</ele>
<time>2026-09-04T06:37:19Z</time>
</trkpt>
<trkpt lat="46.500880000" lon="-72.025390000">
<ele>0</ele>
<time>2026-09-04T06:37:20Z</time>
</trkpt>
<trkpt lat="46.501980000" lon="-72.024400000">
<ele>0</ele>
<time>2026-09-04T06:37:21Z</time>
</trkpt>
<trkpt lat="46.502970000" lon="-72.023290000">
<ele>0</ele>
<time>2026-09-04T06:37:22Z</time>
</trkpt>
<trkpt lat="46.503300000" lon="-72.022830000">
<ele>0</ele>
<time>2026-09-04T06:37:23Z</time>
</trkpt>
<trkpt lat="46.503570000" lon="-72.022380000">
<ele>0</ele>
<time>2026-09-04T06:37:24Z</time>
</trkpt>
<trkpt lat="46.503910000" lon="-72.021840000">
<ele>0</ele>
<time>2026-09-04T06:37:25Z</time>
</trkpt>
<trkpt lat="46.504700000" lon="-72.020340000">
<ele>0</ele>
<time>2026-09-04T06:37:26Z</time>
</trkpt>
<trkpt lat="46.506200000" lon="-72.017610000">
<ele>0</ele>
<time>2026-09-04T06:37:27Z</time>
</trkpt>
<trkpt lat="46.506540000" lon="-72.017000000">
<ele>0</ele>
<time>2026-09-04T06:37:28Z</time>
</trkpt>
<trkpt lat="46.507020000" lon="-72.016220000">
<ele>0</ele>
<time>2026-09-04T06:37:29Z</time>
</trkpt>
<trkpt lat="46.510280000" lon="-72.011340000">
<ele>0</ele>
<time>2026-09-04T06:37:30Z</time>
</trkpt>
<trkpt lat="46.513530000" lon="-72.006460000">
<ele>0</ele>
<time>2026-09-04T06:37:31Z</time>
</trkpt>
<trkpt lat="46.516060000" lon="-72.002670000">
<ele>0</ele>
<time>2026-09-04T06:37:32Z</time>
</trkpt>
<trkpt lat="46.518260000" lon="-71.999300000">
<ele>0</ele>
<time>2026-09-04T06:37:33Z</time>
</trkpt>
<trkpt lat="46.520000000" lon="-71.996680000">
<ele>0</ele>
<time>2026-09-04T06:37:34Z</time>
</trkpt>
<trkpt lat="46.520260000" lon="-71.996200000">
<ele>0</ele>
<time>2026-09-04T06:37:35Z</time>
</trkpt>
<trkpt lat="46.520710000" lon="-71.995060000">
<ele>0</ele>
<time>2026-09-04T06:37:36Z</time>
</trkpt>
<trkpt lat="46.520920000" lon="-71.994720000">
<ele>0</ele>
<time>2026-09-04T06:37:37Z</time>
</trkpt>
<trkpt lat="46.521690000" lon="-71.993640000">
<ele>0</ele>
<time>2026-09-04T06:37:38Z</time>
</trkpt>
<trkpt lat="46.522510000" lon="-71.992500000">
<ele>0</ele>
<time>2026-09-04T06:37:39Z</time>
</trkpt>
<trkpt lat="46.523160000" lon="-71.991710000">
<ele>0</ele>
<time>2026-09-04T06:37:40Z</time>
</trkpt>
<trkpt lat="46.523860000" lon="-71.990890000">
<ele>0</ele>
<time>2026-09-04T06:37:41Z</time>
</trkpt>
<trkpt lat="46.524120000" lon="-71.990530000">
<ele>0</ele>
<time>2026-09-04T06:37:42Z</time>
</trkpt>
<trkpt lat="46.524470000" lon="-71.989930000">
<ele>0</ele>
<time>2026-09-04T06:37:43Z</time>
</trkpt>
<trkpt lat="46.524730000" lon="-71.989560000">
<ele>0</ele>
<time>2026-09-04T06:37:44Z</time>
</trkpt>
<trkpt lat="46.525180000" lon="-71.988750000">
<ele>0</ele>
<time>2026-09-04T06:37:45Z</time>
</trkpt>
<trkpt lat="46.525420000" lon="-71.988350000">
<ele>0</ele>
<time>2026-09-04T06:37:46Z</time>
</trkpt>
<trkpt lat="46.525770000" lon="-71.987760000">
<ele>0</ele>
<time>2026-09-04T06:37:47Z</time>
</trkpt>
<trkpt lat="46.526480000" lon="-71.986580000">
<ele>0</ele>
<time>2026-09-04T06:37:48Z</time>
</trkpt>
<trkpt lat="46.526730000" lon="-71.986210000">
<ele>0</ele>
<time>2026-09-04T06:37:49Z</time>
</trkpt>
<trkpt lat="46.526870000" lon="-71.986050000">
<ele>0</ele>
<time>2026-09-04T06:37:50Z</time>
</trkpt>
<trkpt lat="46.526980000" lon="-71.985950000">
<ele>0</ele>
<time>2026-09-04T06:37:51Z</time>
</trkpt>
<trkpt lat="46.527200000" lon="-71.985850000">
<ele>0</ele>
<time>2026-09-04T06:37:52Z</time>
</trkpt>
<trkpt lat="46.528280000" lon="-71.985730000">
<ele>0</ele>
<time>2026-09-04T06:37:54Z</time>
</trkpt>
<trkpt lat="46.529890000" lon="-71.985540000">
<ele>0</ele>
<time>2026-09-04T06:37:55Z</time>
</trkpt>
<trkpt lat="46.530800000" lon="-71.985440000">
<ele>0</ele>
<time>2026-09-04T06:37:56Z</time>
</trkpt>
<trkpt lat="46.531450000" lon="-71.982620000">
<ele>0</ele>
<time>2026-09-04T06:37:57Z</time>
</trkpt>
<trkpt lat="46.532040000" lon="-71.980140000">
<ele>0</ele>
<time>2026-09-04T06:37:58Z</time>
</trkpt>
<trkpt lat="46.532570000" lon="-71.977920000">
<ele>0</ele>
<time>2026-09-04T06:37:59Z</time>
</trkpt>
<trkpt lat="46.532570000" lon="-71.977920000">
<ele>0</ele>
<time>2026-09-04T06:38:00Z</time>
</trkpt>
<trkpt lat="46.532890000" lon="-71.976600000">
<ele>0</ele>
<time>2026-09-04T06:38:01Z</time>
</trkpt>
<trkpt lat="46.533290000" lon="-71.974690000">
<ele>0</ele>
<time>2026-09-04T06:38:02Z</time>
</trkpt>
<trkpt lat="46.533740000" lon="-71.972430000">
<ele>0</ele>
<time>2026-09-04T06:38:03Z</time>
</trkpt>
<trkpt lat="46.534240000" lon="-71.969650000">
<ele>0</ele>
<time>2026-09-04T06:38:04Z</time>
</trkpt>
<trkpt lat="46.534600000" lon="-71.967620000">
<ele>0</ele>
<time>2026-09-04T06:38:05Z</time>
</trkpt>
<trkpt lat="46.534830000" lon="-71.966360000">
<ele>0</ele>
<time>2026-09-04T06:38:06Z</time>
</trkpt>
<trkpt lat="46.534870000" lon="-71.966100000">
<ele>0</ele>
<time>2026-09-04T06:38:07Z</time>
</trkpt>
<trkpt lat="46.534930000" lon="-71.966110000">
<ele>0</ele>
<time>2026-09-04T06:38:08Z</time>
</trkpt>
<trkpt lat="46.535290000" lon="-71.966120000">
<ele>0</ele>
<time>2026-09-04T06:38:09Z</time>
</trkpt>
<trkpt lat="46.535770000" lon="-71.966150000">
<ele>0</ele>
<time>2026-09-04T06:38:10Z</time>
</trkpt>
<trkpt lat="46.535770000" lon="-71.966150000">
<ele>0</ele>
<time>2026-09-04T06:38:11Z</time>
</trkpt>
<trkpt lat="46.541430000" lon="-71.966430000">
<ele>0</ele>
<time>2026-09-04T06:38:12Z</time>
</trkpt>
<trkpt lat="46.544280000" lon="-71.966570000">
<ele>0</ele>
<time>2026-09-04T06:38:13Z</time>
</trkpt>
<trkpt lat="46.545740000" lon="-71.966640000">
<ele>0</ele>
<time>2026-09-04T06:38:14Z</time>
</trkpt>
<trkpt lat="46.547880000" lon="-71.966650000">
<ele>0</ele>
<time>2026-09-04T06:38:15Z</time>
</trkpt>
<trkpt lat="46.550220000" lon="-71.966650000">
<ele>0</ele>
<time>2026-09-04T06:38:16Z</time>
</trkpt>
<trkpt lat="46.550100000" lon="-71.965510000">
<ele>0</ele>
<time>2026-09-04T06:38:17Z</time>
</trkpt>
<trkpt lat="46.550100000" lon="-71.965510000">
<ele>0</ele>
<time>2026-09-04T06:38:18Z</time>
</trkpt>
<trkpt lat="46.550030000" lon="-71.964840000">
<ele>0</ele>
<time>2026-09-04T06:38:19Z</time>
</trkpt>
<trkpt lat="46.550500000" lon="-71.964810000">
<ele>0</ele>
<time>2026-09-04T06:38:20Z</time>
</trkpt>
<trkpt lat="46.550620000" lon="-71.964800000">
<ele>0</ele>
<time>2026-09-04T06:38:21Z</time>
</trkpt>
<trkpt lat="46.550620000" lon="-71.964800000">
<ele>0</ele>
<time>2026-09-04T06:38:22Z</time>
</trkpt>
<trkpt lat="46.551650000" lon="-71.964770000">
<ele>0</ele>
<time>2026-09-04T06:38:23Z</time>
</trkpt>
<trkpt lat="46.551920000" lon="-71.964820000">
<ele>0</ele>
<time>2026-09-04T06:38:24Z</time>
</trkpt>
<trkpt lat="46.552170000" lon="-71.964940000">
<ele>0</ele>
<time>2026-09-04T06:38:25Z</time>
</trkpt>
<trkpt lat="46.552330000" lon="-71.965060000">
<ele>0</ele>
<time>2026-09-04T06:38:26Z</time>
</trkpt>
<trkpt lat="46.552390000" lon="-71.965120000">
<ele>0</ele>
<time>2026-09-04T06:38:27Z</time>
</trkpt>
<trkpt lat="46.552470000" lon="-71.965230000">
<ele>0</ele>
<time>2026-09-04T06:38:28Z</time>
</trkpt>
<trkpt lat="46.552600000" lon="-71.965480000">
<ele>0</ele>
<time>2026-09-04T06:38:29Z</time>
</trkpt>
<trkpt lat="46.552790000" lon="-71.965860000">
<ele>0</ele>
<time>2026-09-04T06:38:30Z</time>
</trkpt>
<trkpt lat="46.553030000" lon="-71.966240000">
<ele>0</ele>
<time>2026-09-04T06:38:31Z</time>
</trkpt>
<trkpt lat="46.553170000" lon="-71.966420000">
<ele>0</ele>
<time>2026-09-04T06:38:32Z</time>
</trkpt>
<trkpt lat="46.553320000" lon="-71.966550000">
<ele>0</ele>
<time>2026-09-04T06:38:33Z</time>
</trkpt>
<trkpt lat="46.553630000" lon="-71.966810000">
<ele>0</ele>
<time>2026-09-04T06:38:34Z</time>
</trkpt>
<trkpt lat="46.553850000" lon="-71.966990000">
<ele>0</ele>
<time>2026-09-04T06:38:35Z</time>
</trkpt>
<trkpt lat="46.554090000" lon="-71.967220000">
<ele>0</ele>
<time>2026-09-04T06:38:36Z</time>
</trkpt>
<trkpt lat="46.554270000" lon="-71.967440000">
<ele>0</ele>
<time>2026-09-04T06:38:37Z</time>
</trkpt>
<trkpt lat="46.554330000" lon="-71.967600000">
<ele>0</ele>
<time>2026-09-04T06:38:38Z</time>
</trkpt>
<trkpt lat="46.554620000" lon="-71.968390000">
<ele>0</ele>
<time>2026-09-04T06:38:39Z</time>
</trkpt>
<trkpt lat="46.554800000" lon="-71.969060000">
<ele>0</ele>
<time>2026-09-04T06:38:40Z</time>
</trkpt>
<trkpt lat="46.554900000" lon="-71.969370000">
<ele>0</ele>
<time>2026-09-04T06:38:41Z</time>
</trkpt>
<trkpt lat="46.554990000" lon="-71.969470000">
<ele>0</ele>
<time>2026-09-04T06:38:42Z</time>
</trkpt>
<trkpt lat="46.555020000" lon="-71.969490000">
<ele>0</ele>
<time>2026-09-04T06:38:43Z</time>
</trkpt>
<trkpt lat="46.555020000" lon="-71.969490000">
<ele>0</ele>
<time>2026-09-04T06:38:44Z</time>
</trkpt>
<trkpt lat="46.555150000" lon="-71.969560000">
<ele>0</ele>
<time>2026-09-04T06:38:45Z</time>
</trkpt>
<trkpt lat="46.555330000" lon="-71.969600000">
<ele>0</ele>
<time>2026-09-04T06:38:46Z</time>
</trkpt>
<trkpt lat="46.556220000" lon="-71.969770000">
<ele>0</ele>
<time>2026-09-04T06:38:47Z</time>
</trkpt>
<trkpt lat="46.556640000" lon="-71.969850000">
<ele>0</ele>
<time>2026-09-04T06:38:48Z</time>
</trkpt>
<trkpt lat="46.556940000" lon="-71.969850000">
<ele>0</ele>
<time>2026-09-04T06:38:49Z</time>
</trkpt>
<trkpt lat="46.557120000" lon="-71.969840000">
<ele>0</ele>
<time>2026-09-04T06:38:50Z</time>
</trkpt>
<trkpt lat="46.557300000" lon="-71.969800000">
<ele>0</ele>
<time>2026-09-04T06:38:51Z</time>
</trkpt>
<trkpt lat="46.557580000" lon="-71.969610000">
<ele>0</ele>
<time>2026-09-04T06:38:52Z</time>
</trkpt>
<trkpt lat="46.557740000" lon="-71.969380000">
<ele>0</ele>
<time>2026-09-04T06:38:53Z</time>
</trkpt>
<trkpt lat="46.557850000" lon="-71.969160000">
<ele>0</ele>
<time>2026-09-04T06:38:54Z</time>
</trkpt>
<trkpt lat="46.557920000" lon="-71.968930000">
<ele>0</ele>
<time>2026-09-04T06:38:55Z</time>
</trkpt>
<trkpt lat="46.557950000" lon="-71.968780000">
<ele>0</ele>
<time>2026-09-04T06:38:56Z</time>
</trkpt>
<trkpt lat="46.557940000" lon="-71.968420000">
<ele>0</ele>
<time>2026-09-04T06:38:57Z</time>
</trkpt>
<trkpt lat="46.557840000" lon="-71.966820000">
<ele>0</ele>
<time>2026-09-04T06:38:58Z</time>
</trkpt>
<trkpt lat="46.557850000" lon="-71.966390000">
<ele>0</ele>
<time>2026-09-04T06:38:59Z</time>
</trkpt>
<trkpt lat="46.557930000" lon="-71.965830000">
<ele>0</ele>
<time>2026-09-04T06:39:00Z</time>
</trkpt>
<trkpt lat="46.558030000" lon="-71.965320000">
<ele>0</ele>
<time>2026-09-04T06:39:01Z</time>
</trkpt>
<trkpt lat="46.558230000" lon="-71.964590000">
<ele>0</ele>
<time>2026-09-04T06:39:02Z</time>
</trkpt>
<trkpt lat="46.558380000" lon="-71.964110000">
<ele>0</ele>
<time>2026-09-04T06:39:03Z</time>
</trkpt>
<trkpt lat="46.558530000" lon="-71.963490000">
<ele>0</ele>
<time>2026-09-04T06:39:04Z</time>
</trkpt>
<trkpt lat="46.558610000" lon="-71.963120000">
<ele>0</ele>
<time>2026-09-04T06:39:05Z</time>
</trkpt>
<trkpt lat="46.558800000" lon="-71.962680000">
<ele>0</ele>
<time>2026-09-04T06:39:06Z</time>
</trkpt>
<trkpt lat="46.558950000" lon="-71.962330000">
<ele>0</ele>
<time>2026-09-04T06:39:07Z</time>
</trkpt>
<trkpt lat="46.559120000" lon="-71.962040000">
<ele>0</ele>
<time>2026-09-04T06:39:08Z</time>
</trkpt>
<trkpt lat="46.559290000" lon="-71.961730000">
<ele>0</ele>
<time>2026-09-04T06:39:09Z</time>
</trkpt>
<trkpt lat="46.559490000" lon="-71.961480000">
<ele>0</ele>
<time>2026-09-04T06:39:10Z</time>
</trkpt>
<trkpt lat="46.559880000" lon="-71.960940000">
<ele>0</ele>
<time>2026-09-04T06:39:11Z</time>
</trkpt>
<trkpt lat="46.560390000" lon="-71.960200000">
<ele>0</ele>
<time>2026-09-04T06:39:12Z</time>
</trkpt>
<trkpt lat="46.561410000" lon="-71.958730000">
<ele>0</ele>
<time>2026-09-04T06:39:13Z</time>
</trkpt>
<trkpt lat="46.561940000" lon="-71.957960000">
<ele>0</ele>
<time>2026-09-04T06:39:14Z</time>
</trkpt>
<trkpt lat="46.562180000" lon="-71.957630000">
<ele>0</ele>
<time>2026-09-04T06:39:15Z</time>
</trkpt>
<trkpt lat="46.562840000" lon="-71.956700000">
<ele>0</ele>
<time>2026-09-04T06:39:16Z</time>
</trkpt>
<trkpt lat="46.563330000" lon="-71.955970000">
<ele>0</ele>
<time>2026-09-04T06:39:17Z</time>
</trkpt>
<trkpt lat="46.563720000" lon="-71.955390000">
<ele>0</ele>
<time>2026-09-04T06:39:18Z</time>
</trkpt>
<trkpt lat="46.564220000" lon="-71.954640000">
<ele>0</ele>
<time>2026-09-04T06:39:19Z</time>
</trkpt>
<trkpt lat="46.564850000" lon="-71.953710000">
<ele>0</ele>
<time>2026-09-04T06:39:20Z</time>
</trkpt>
<trkpt lat="46.566360000" lon="-71.951460000">
<ele>0</ele>
<time>2026-09-04T06:39:21Z</time>
</trkpt>
<trkpt lat="46.567750000" lon="-71.949420000">
<ele>0</ele>
<time>2026-09-04T06:39:22Z</time>
</trkpt>
<trkpt lat="46.569040000" lon="-71.947600000">
<ele>0</ele>
<time>2026-09-04T06:39:23Z</time>
</trkpt>
<trkpt lat="46.570790000" lon="-71.945150000">
<ele>0</ele>
<time>2026-09-04T06:39:24Z</time>
</trkpt>
<trkpt lat="46.573090000" lon="-71.941750000">
<ele>0</ele>
<time>2026-09-04T06:39:25Z</time>
</trkpt>
<trkpt lat="46.573290000" lon="-71.941450000">
<ele>0</ele>
<time>2026-09-04T06:39:26Z</time>
</trkpt>
<trkpt lat="46.573850000" lon="-71.940740000">
<ele>0</ele>
<time>2026-09-04T06:39:27Z</time>
</trkpt>
<trkpt lat="46.574190000" lon="-71.940500000">
<ele>0</ele>
<time>2026-09-04T06:39:28Z</time>
</trkpt>
<trkpt lat="46.574520000" lon="-71.940210000">
<ele>0</ele>
<time>2026-09-04T06:39:29Z</time>
</trkpt>
<trkpt lat="46.575610000" lon="-71.939290000">
<ele>0</ele>
<time>2026-09-04T06:39:30Z</time>
</trkpt>
<trkpt lat="46.576390000" lon="-71.938650000">
<ele>0</ele>
<time>2026-09-04T06:39:31Z</time>
</trkpt>
<trkpt lat="46.577030000" lon="-71.938160000">
<ele>0</ele>
<time>2026-09-04T06:39:32Z</time>
</trkpt>
<trkpt lat="46.577660000" lon="-71.937670000">
<ele>0</ele>
<time>2026-09-04T06:39:33Z</time>
</trkpt>
<trkpt lat="46.577960000" lon="-71.937390000">
<ele>0</ele>
<time>2026-09-04T06:39:34Z</time>
</trkpt>
<trkpt lat="46.578510000" lon="-71.936700000">
<ele>0</ele>
<time>2026-09-04T06:39:35Z</time>
</trkpt>
<trkpt lat="46.579910000" lon="-71.935060000">
<ele>0</ele>
<time>2026-09-04T06:39:36Z</time>
</trkpt>
<trkpt lat="46.580450000" lon="-71.934450000">
<ele>0</ele>
<time>2026-09-04T06:39:37Z</time>
</trkpt>
<trkpt lat="46.580780000" lon="-71.934120000">
<ele>0</ele>
<time>2026-09-04T06:39:38Z</time>
</trkpt>
<trkpt lat="46.581040000" lon="-71.933850000">
<ele>0</ele>
<time>2026-09-04T06:39:39Z</time>
</trkpt>
<trkpt lat="46.581320000" lon="-71.933630000">
<ele>0</ele>
<time>2026-09-04T06:39:40Z</time>
</trkpt>
<trkpt lat="46.581600000" lon="-71.933490000">
<ele>0</ele>
<time>2026-09-04T06:39:41Z</time>
</trkpt>
<trkpt lat="46.582790000" lon="-71.933080000">
<ele>0</ele>
<time>2026-09-04T06:39:42Z</time>
</trkpt>
<trkpt lat="46.582950000" lon="-71.933030000">
<ele>0</ele>
<time>2026-09-04T06:39:43Z</time>
</trkpt>
<trkpt lat="46.583640000" lon="-71.932680000">
<ele>0</ele>
<time>2026-09-04T06:39:44Z</time>
</trkpt>
<trkpt lat="46.583790000" lon="-71.932540000">
<ele>0</ele>
<time>2026-09-04T06:39:45Z</time>
</trkpt>
<trkpt lat="46.584080000" lon="-71.932250000">
<ele>0</ele>
<time>2026-09-04T06:39:46Z</time>
</trkpt>
<trkpt lat="46.584500000" lon="-71.931740000">
<ele>0</ele>
<time>2026-09-04T06:39:47Z</time>
</trkpt>
<trkpt lat="46.585330000" lon="-71.930730000">
<ele>0</ele>
<time>2026-09-04T06:39:48Z</time>
</trkpt>
<trkpt lat="46.585880000" lon="-71.930060000">
<ele>0</ele>
<time>2026-09-04T06:39:49Z</time>
</trkpt>
<trkpt lat="46.587070000" lon="-71.928550000">
<ele>0</ele>
<time>2026-09-04T06:39:50Z</time>
</trkpt>
<trkpt lat="46.589160000" lon="-71.925980000">
<ele>0</ele>
<time>2026-09-04T06:39:51Z</time>
</trkpt>
<trkpt lat="46.590120000" lon="-71.924790000">
<ele>0</ele>
<time>2026-09-04T06:39:52Z</time>
</trkpt>
<trkpt lat="46.593010000" lon="-71.921240000">
<ele>0</ele>
<time>2026-09-04T06:39:53Z</time>
</trkpt>
<trkpt lat="46.593690000" lon="-71.920400000">
<ele>0</ele>
<time>2026-09-04T06:39:54Z</time>
</trkpt>
<trkpt lat="46.593810000" lon="-71.920140000">
<ele>0</ele>
<time>2026-09-04T06:39:55Z</time>
</trkpt>
<trkpt lat="46.593980000" lon="-71.919600000">
<ele>0</ele>
<time>2026-09-04T06:39:56Z</time>
</trkpt>
<trkpt lat="46.594270000" lon="-71.918080000">
<ele>0</ele>
<time>2026-09-04T06:39:57Z</time>
</trkpt>
<trkpt lat="46.594370000" lon="-71.917550000">
<ele>0</ele>
<time>2026-09-04T06:39:58Z</time>
</trkpt>
<trkpt lat="46.594560000" lon="-71.916750000">
<ele>0</ele>
<time>2026-09-04T06:39:59Z</time>
</trkpt>
<trkpt lat="46.594680000" lon="-71.916280000">
<ele>0</ele>
<time>2026-09-04T06:40:00Z</time>
</trkpt>
<trkpt lat="46.594810000" lon="-71.915950000">
<ele>0</ele>
<time>2026-09-04T06:40:01Z</time>
</trkpt>
<trkpt lat="46.595090000" lon="-71.915510000">
<ele>0</ele>
<time>2026-09-04T06:40:02Z</time>
</trkpt>
<trkpt lat="46.595300000" lon="-71.915090000">
<ele>0</ele>
<time>2026-09-04T06:40:03Z</time>
</trkpt>
<trkpt lat="46.595400000" lon="-71.914870000">
<ele>0</ele>
<time>2026-09-04T06:40:04Z</time>
</trkpt>
<trkpt lat="46.596030000" lon="-71.912990000">
<ele>0</ele>
<time>2026-09-04T06:40:05Z</time>
</trkpt>
<trkpt lat="46.598380000" lon="-71.905920000">
<ele>0</ele>
<time>2026-09-04T06:40:06Z</time>
</trkpt>
<trkpt lat="46.598760000" lon="-71.905030000">
<ele>0</ele>
<time>2026-09-04T06:40:07Z</time>
</trkpt>
<trkpt lat="46.599050000" lon="-71.904370000">
<ele>0</ele>
<time>2026-09-04T06:40:08Z</time>
</trkpt>
<trkpt lat="46.599370000" lon="-71.903740000">
<ele>0</ele>
<time>2026-09-04T06:40:09Z</time>
</trkpt>
<trkpt lat="46.599690000" lon="-71.903050000">
<ele>0</ele>
<time>2026-09-04T06:40:10Z</time>
</trkpt>
<trkpt lat="46.599720000" lon="-71.903040000">
<ele>0</ele>
<time>2026-09-04T06:40:11Z</time>
</trkpt>
<trkpt lat="46.599790000" lon="-71.902900000">
<ele>0</ele>
<time>2026-09-04T06:40:12Z</time>
</trkpt>
<trkpt lat="46.599920000" lon="-71.902670000">
<ele>0</ele>
<time>2026-09-04T06:40:13Z</time>
</trkpt>
<trkpt lat="46.600050000" lon="-71.902540000">
<ele>0</ele>
<time>2026-09-04T06:40:14Z</time>
</trkpt>
<trkpt lat="46.600230000" lon="-71.902350000">
<ele>0</ele>
<time>2026-09-04T06:40:15Z</time>
</trkpt>
<trkpt lat="46.600740000" lon="-71.902080000">
<ele>0</ele>
<time>2026-09-04T06:40:16Z</time>
</trkpt>
<trkpt lat="46.600990000" lon="-71.902060000">
<ele>0</ele>
<time>2026-09-04T06:40:17Z</time>
</trkpt>
<trkpt lat="46.601770000" lon="-71.902200000">
<ele>0</ele>
<time>2026-09-04T06:40:18Z</time>
</trkpt>
<trkpt lat="46.601720000" lon="-71.902680000">
<ele>0</ele>
<time>2026-09-04T06:40:19Z</time>
</trkpt>
<trkpt lat="46.601710000" lon="-71.903450000">
<ele>0</ele>
<time>2026-09-04T06:40:20Z</time>
</trkpt>
<trkpt lat="46.601710000" lon="-71.903450000">
<ele>0</ele>
<time>2026-09-04T06:40:21Z</time>
</trkpt>
<trkpt lat="46.601710000" lon="-71.903840000">
<ele>0</ele>
<time>2026-09-04T06:40:22Z</time>
</trkpt>
<trkpt lat="46.601780000" lon="-71.904340000">
<ele>0</ele>
<time>2026-09-04T06:40:23Z</time>
</trkpt>
<trkpt lat="46.601960000" lon="-71.905230000">
<ele>0</ele>
<time>2026-09-04T06:40:24Z</time>
</trkpt>
<trkpt lat="46.602200000" lon="-71.906000000">
<ele>0</ele>
<time>2026-09-04T06:40:25Z</time>
</trkpt>
<trkpt lat="46.602270000" lon="-71.906180000">
<ele>0</ele>
<time>2026-09-04T06:40:26Z</time>
</trkpt>
<trkpt lat="46.602360000" lon="-71.906400000">
<ele>0</ele>
<time>2026-09-04T06:40:27Z</time>
</trkpt>
<trkpt lat="46.602670000" lon="-71.906980000">
<ele>0</ele>
<time>2026-09-04T06:40:28Z</time>
</trkpt>
<trkpt lat="46.606680000" lon="-71.913820000">
<ele>0</ele>
<time>2026-09-04T06:40:29Z</time>
</trkpt>
<trkpt lat="46.610760000" lon="-71.920820000">
<ele>0</ele>
<time>2026-09-04T06:40:30Z</time>
</trkpt>
<trkpt lat="46.613100000" lon="-71.924800000">
<ele>0</ele>
<time>2026-09-04T06:40:31Z</time>
</trkpt>
<trkpt lat="46.614970000" lon="-71.927990000">
<ele>0</ele>
<time>2026-09-04T06:40:32Z</time>
</trkpt>
<trkpt lat="46.616120000" lon="-71.929990000">
<ele>0</ele>
<time>2026-09-04T06:40:33Z</time>
</trkpt>
<trkpt lat="46.616580000" lon="-71.930800000">
<ele>0</ele>
<time>2026-09-04T06:40:34Z</time>
</trkpt>
<trkpt lat="46.616440000" lon="-71.932140000">
<ele>0</ele>
<time>2026-09-04T06:40:35Z</time>
</trkpt>
<trkpt lat="46.616430000" lon="-71.933140000">
<ele>0</ele>
<time>2026-09-04T06:40:36Z</time>
</trkpt>
<trkpt lat="46.616430000" lon="-71.933140000">
<ele>0</ele>
<time>2026-09-04T06:40:37Z</time>
</trkpt>
<trkpt lat="46.616410000" lon="-71.934270000">
<ele>0</ele>
<time>2026-09-04T06:40:38Z</time>
</trkpt>
<trkpt lat="46.616280000" lon="-71.935340000">
<ele>0</ele>
<time>2026-09-04T06:40:39Z</time>
</trkpt>
<trkpt lat="46.616110000" lon="-71.936290000">
<ele>0</ele>
<time>2026-09-04T06:40:40Z</time>
</trkpt>
<trkpt lat="46.615980000" lon="-71.936930000">
<ele>0</ele>
<time>2026-09-04T06:40:41Z</time>
</trkpt>
<trkpt lat="46.615820000" lon="-71.937600000">
<ele>0</ele>
<time>2026-09-04T06:40:42Z</time>
</trkpt>
<trkpt lat="46.615460000" lon="-71.939670000">
<ele>0</ele>
<time>2026-09-04T06:40:43Z</time>
</trkpt>
<trkpt lat="46.615010000" lon="-71.941010000">
<ele>0</ele>
<time>2026-09-04T06:40:44Z</time>
</trkpt>
<trkpt lat="46.614740000" lon="-71.941910000">
<ele>0</ele>
<time>2026-09-04T06:40:45Z</time>
</trkpt>
<trkpt lat="46.614370000" lon="-71.943480000">
<ele>0</ele>
<time>2026-09-04T06:40:46Z</time>
</trkpt>
<trkpt lat="46.614030000" lon="-71.944820000">
<ele>0</ele>
<time>2026-09-04T06:40:47Z</time>
</trkpt>
<trkpt lat="46.613510000" lon="-71.946460000">
<ele>0</ele>
<time>2026-09-04T06:40:48Z</time>
</trkpt>
<trkpt lat="46.612290000" lon="-71.950070000">
<ele>0</ele>
<time>2026-09-04T06:40:49Z</time>
</trkpt>
<trkpt lat="46.611910000" lon="-71.951200000">
<ele>0</ele>
<time>2026-09-04T06:40:50Z</time>
</trkpt>
<trkpt lat="46.611570000" lon="-71.952040000">
<ele>0</ele>
<time>2026-09-04T06:40:51Z</time>
</trkpt>
<trkpt lat="46.611300000" lon="-71.952630000">
<ele>0</ele>
<time>2026-09-04T06:40:52Z</time>
</trkpt>
<trkpt lat="46.610740000" lon="-71.953740000">
<ele>0</ele>
<time>2026-09-04T06:40:53Z</time>
</trkpt>
<trkpt lat="46.610510000" lon="-71.954100000">
<ele>0</ele>
<time>2026-09-04T06:40:54Z</time>
</trkpt>
<trkpt lat="46.610170000" lon="-71.954560000">
<ele>0</ele>
<time>2026-09-04T06:40:55Z</time>
</trkpt>
<trkpt lat="46.609650000" lon="-71.955140000">
<ele>0</ele>
<time>2026-09-04T06:40:56Z</time>
</trkpt>
<trkpt lat="46.608750000" lon="-71.956030000">
<ele>0</ele>
<time>2026-09-04T06:40:57Z</time>
</trkpt>
<trkpt lat="46.607860000" lon="-71.956880000">
<ele>0</ele>
<time>2026-09-04T06:40:58Z</time>
</trkpt>
<trkpt lat="46.607520000" lon="-71.957160000">
<ele>0</ele>
<time>2026-09-04T06:40:59Z</time>
</trkpt>
<trkpt lat="46.607280000" lon="-71.957330000">
<ele>0</ele>
<time>2026-09-04T06:41:00Z</time>
</trkpt>
<trkpt lat="46.607030000" lon="-71.957490000">
<ele>0</ele>
<time>2026-09-04T06:41:01Z</time>
</trkpt>
<trkpt lat="46.606700000" lon="-71.957640000">
<ele>0</ele>
<time>2026-09-04T06:41:02Z</time>
</trkpt>
<trkpt lat="46.606240000" lon="-71.957820000">
<ele>0</ele>
<time>2026-09-04T06:41:03Z</time>
</trkpt>
<trkpt lat="46.605550000" lon="-71.958110000">
<ele>0</ele>
<time>2026-09-04T06:41:04Z</time>
</trkpt>
<trkpt lat="46.605300000" lon="-71.958250000">
<ele>0</ele>
<time>2026-09-04T06:41:05Z</time>
</trkpt>
<trkpt lat="46.605030000" lon="-71.958440000">
<ele>0</ele>
<time>2026-09-04T06:41:06Z</time>
</trkpt>
<trkpt lat="46.604780000" lon="-71.958680000">
<ele>0</ele>
<time>2026-09-04T06:41:07Z</time>
</trkpt>
<trkpt lat="46.604620000" lon="-71.958870000">
<ele>0</ele>
<time>2026-09-04T06:41:08Z</time>
</trkpt>
<trkpt lat="46.604490000" lon="-71.959060000">
<ele>0</ele>
<time>2026-09-04T06:41:09Z</time>
</trkpt>
<trkpt lat="46.604310000" lon="-71.959360000">
<ele>0</ele>
<time>2026-09-04T06:41:10Z</time>
</trkpt>
<trkpt lat="46.604020000" lon="-71.959980000">
<ele>0</ele>
<time>2026-09-04T06:41:11Z</time>
</trkpt>
<trkpt lat="46.603880000" lon="-71.960380000">
<ele>0</ele>
<time>2026-09-04T06:41:12Z</time>
</trkpt>
<trkpt lat="46.603680000" lon="-71.961090000">
<ele>0</ele>
<time>2026-09-04T06:41:13Z</time>
</trkpt>
<trkpt lat="46.603400000" lon="-71.962150000">
<ele>0</ele>
<time>2026-09-04T06:41:14Z</time>
</trkpt>
<trkpt lat="46.603230000" lon="-71.962800000">
<ele>0</ele>
<time>2026-09-04T06:41:15Z</time>
</trkpt>
<trkpt lat="46.603100000" lon="-71.963230000">
<ele>0</ele>
<time>2026-09-04T06:41:16Z</time>
</trkpt>
<trkpt lat="46.602920000" lon="-71.963740000">
<ele>0</ele>
<time>2026-09-04T06:41:17Z</time>
</trkpt>
<trkpt lat="46.602740000" lon="-71.964170000">
<ele>0</ele>
<time>2026-09-04T06:41:18Z</time>
</trkpt>
<trkpt lat="46.602320000" lon="-71.965070000">
<ele>0</ele>
<time>2026-09-04T06:41:19Z</time>
</trkpt>
<trkpt lat="46.601470000" lon="-71.966730000">
<ele>0</ele>
<time>2026-09-04T06:41:20Z</time>
</trkpt>
<trkpt lat="46.601140000" lon="-71.967320000">
<ele>0</ele>
<time>2026-09-04T06:41:21Z</time>
</trkpt>
<trkpt lat="46.600860000" lon="-71.967760000">
<ele>0</ele>
<time>2026-09-04T06:41:22Z</time>
</trkpt>
<trkpt lat="46.600610000" lon="-71.968080000">
<ele>0</ele>
<time>2026-09-04T06:41:23Z</time>
</trkpt>
<trkpt lat="46.600340000" lon="-71.968360000">
<ele>0</ele>
<time>2026-09-04T06:41:24Z</time>
</trkpt>
<trkpt lat="46.600160000" lon="-71.968520000">
<ele>0</ele>
<time>2026-09-04T06:41:25Z</time>
</trkpt>
<trkpt lat="46.599920000" lon="-71.968700000">
<ele>0</ele>
<time>2026-09-04T06:41:26Z</time>
</trkpt>
<trkpt lat="46.599600000" lon="-71.968910000">
<ele>0</ele>
<time>2026-09-04T06:41:27Z</time>
</trkpt>
<trkpt lat="46.597920000" lon="-71.969830000">
<ele>0</ele>
<time>2026-09-04T06:41:28Z</time>
</trkpt>
<trkpt lat="46.597560000" lon="-71.970060000">
<ele>0</ele>
<time>2026-09-04T06:41:29Z</time>
</trkpt>
<trkpt lat="46.597380000" lon="-71.970200000">
<ele>0</ele>
<time>2026-09-04T06:41:30Z</time>
</trkpt>
<trkpt lat="46.597130000" lon="-71.970440000">
<ele>0</ele>
<time>2026-09-04T06:41:31Z</time>
</trkpt>
<trkpt lat="46.596900000" lon="-71.970710000">
<ele>0</ele>
<time>2026-09-04T06:41:32Z</time>
</trkpt>
<trkpt lat="46.596690000" lon="-71.971020000">
<ele>0</ele>
<time>2026-09-04T06:41:33Z</time>
</trkpt>
<trkpt lat="46.595990000" lon="-71.972110000">
<ele>0</ele>
<time>2026-09-04T06:41:34Z</time>
</trkpt>
<trkpt lat="46.595680000" lon="-71.972580000">
<ele>0</ele>
<time>2026-09-04T06:41:35Z</time>
</trkpt>
<trkpt lat="46.595410000" lon="-71.972960000">
<ele>0</ele>
<time>2026-09-04T06:41:36Z</time>
</trkpt>
<trkpt lat="46.595120000" lon="-71.973310000">
<ele>0</ele>
<time>2026-09-04T06:41:37Z</time>
</trkpt>
<trkpt lat="46.594730000" lon="-71.973670000">
<ele>0</ele>
<time>2026-09-04T06:41:38Z</time>
</trkpt>
<trkpt lat="46.594300000" lon="-71.974000000">
<ele>0</ele>
<time>2026-09-04T06:41:39Z</time>
</trkpt>
<trkpt lat="46.592530000" lon="-71.975320000">
<ele>0</ele>
<time>2026-09-04T06:41:40Z</time>
</trkpt>
<trkpt lat="46.591300000" lon="-71.976230000">
<ele>0</ele>
<time>2026-09-04T06:41:41Z</time>
</trkpt>
<trkpt lat="46.590880000" lon="-71.976550000">
<ele>0</ele>
<time>2026-09-04T06:41:42Z</time>
</trkpt>
<trkpt lat="46.590540000" lon="-71.976850000">
<ele>0</ele>
<time>2026-09-04T06:41:43Z</time>
</trkpt>
<trkpt lat="46.590260000" lon="-71.977140000">
<ele>0</ele>
<time>2026-09-04T06:41:44Z</time>
</trkpt>
<trkpt lat="46.589960000" lon="-71.977560000">
<ele>0</ele>
<time>2026-09-04T06:41:45Z</time>
</trkpt>
<trkpt lat="46.589780000" lon="-71.977820000">
<ele>0</ele>
<time>2026-09-04T06:41:46Z</time>
</trkpt>
<trkpt lat="46.589460000" lon="-71.978400000">
<ele>0</ele>
<time>2026-09-04T06:41:47Z</time>
</trkpt>
<trkpt lat="46.589190000" lon="-71.979010000">
<ele>0</ele>
<time>2026-09-04T06:41:48Z</time>
</trkpt>
<trkpt lat="46.588980000" lon="-71.979560000">
<ele>0</ele>
<time>2026-09-04T06:41:49Z</time>
</trkpt>
<trkpt lat="46.588980000" lon="-71.979560000">
<ele>0</ele>
<time>2026-09-04T06:41:50Z</time>
</trkpt>
<trkpt lat="46.587740000" lon="-71.982670000">
<ele>0</ele>
<time>2026-09-04T06:41:51Z</time>
</trkpt>
<trkpt lat="46.587480000" lon="-71.983240000">
<ele>0</ele>
<time>2026-09-04T06:41:52Z</time>
</trkpt>
<trkpt lat="46.587240000" lon="-71.983690000">
<ele>0</ele>
<time>2026-09-04T06:41:53Z</time>
</trkpt>
<trkpt lat="46.587020000" lon="-71.984030000">
<ele>0</ele>
<time>2026-09-04T06:41:54Z</time>
</trkpt>
<trkpt lat="46.586650000" lon="-71.984540000">
<ele>0</ele>
<time>2026-09-04T06:41:55Z</time>
</trkpt>
<trkpt lat="46.586270000" lon="-71.984990000">
<ele>0</ele>
<time>2026-09-04T06:41:56Z</time>
</trkpt>
<trkpt lat="46.585950000" lon="-71.985280000">
<ele>0</ele>
<time>2026-09-04T06:41:57Z</time>
</trkpt>
<trkpt lat="46.585470000" lon="-71.985610000">
<ele>0</ele>
<time>2026-09-04T06:41:58Z</time>
</trkpt>
<trkpt lat="46.584850000" lon="-71.985990000">
<ele>0</ele>
<time>2026-09-04T06:41:59Z</time>
</trkpt>
<trkpt lat="46.583130000" lon="-71.987040000">
<ele>0</ele>
<time>2026-09-04T06:42:00Z</time>
</trkpt>
<trkpt lat="46.582800000" lon="-71.987240000">
<ele>0</ele>
<time>2026-09-04T06:42:01Z</time>
</trkpt>
<trkpt lat="46.582630000" lon="-71.987320000">
<ele>0</ele>
<time>2026-09-04T06:42:02Z</time>
</trkpt>
<trkpt lat="46.581620000" lon="-71.987950000">
<ele>0</ele>
<time>2026-09-04T06:42:03Z</time>
</trkpt>
<trkpt lat="46.580700000" lon="-71.988590000">
<ele>0</ele>
<time>2026-09-04T06:42:04Z</time>
</trkpt>
<trkpt lat="46.578490000" lon="-71.990230000">
<ele>0</ele>
<time>2026-09-04T06:42:05Z</time>
</trkpt>
<trkpt lat="46.577750000" lon="-71.990730000">
<ele>0</ele>
<time>2026-09-04T06:42:06Z</time>
</trkpt>
<trkpt lat="46.577310000" lon="-71.990950000">
<ele>0</ele>
<time>2026-09-04T06:42:07Z</time>
</trkpt>
<trkpt lat="46.577040000" lon="-71.991050000">
<ele>0</ele>
<time>2026-09-04T06:42:08Z</time>
</trkpt>
<trkpt lat="46.576800000" lon="-71.991100000">
<ele>0</ele>
<time>2026-09-04T06:42:09Z</time>
</trkpt>
<trkpt lat="46.576260000" lon="-71.991170000">
<ele>0</ele>
<time>2026-09-04T06:42:10Z</time>
</trkpt>
<trkpt lat="46.575800000" lon="-71.991230000">
<ele>0</ele>
<time>2026-09-04T06:42:11Z</time>
</trkpt>
<trkpt lat="46.575530000" lon="-71.991270000">
<ele>0</ele>
<time>2026-09-04T06:42:12Z</time>
</trkpt>
<trkpt lat="46.574990000" lon="-71.991390000">
<ele>0</ele>
<time>2026-09-04T06:42:13Z</time>
</trkpt>
<trkpt lat="46.574770000" lon="-71.991460000">
<ele>0</ele>
<time>2026-09-04T06:42:14Z</time>
</trkpt>
<trkpt lat="46.574500000" lon="-71.991590000">
<ele>0</ele>
<time>2026-09-04T06:42:15Z</time>
</trkpt>
<trkpt lat="46.574310000" lon="-71.991700000">
<ele>0</ele>
<time>2026-09-04T06:42:16Z</time>
</trkpt>
<trkpt lat="46.574060000" lon="-71.991870000">
<ele>0</ele>
<time>2026-09-04T06:42:17Z</time>
</trkpt>
<trkpt lat="46.573830000" lon="-71.992060000">
<ele>0</ele>
<time>2026-09-04T06:42:18Z</time>
</trkpt>
<trkpt lat="46.573470000" lon="-71.992400000">
<ele>0</ele>
<time>2026-09-04T06:42:19Z</time>
</trkpt>
<trkpt lat="46.573190000" lon="-71.992730000">
<ele>0</ele>
<time>2026-09-04T06:42:20Z</time>
</trkpt>
<trkpt lat="46.572230000" lon="-71.993850000">
<ele>0</ele>
<time>2026-09-04T06:42:21Z</time>
</trkpt>
<trkpt lat="46.571910000" lon="-71.994250000">
<ele>0</ele>
<time>2026-09-04T06:42:22Z</time>
</trkpt>
<trkpt lat="46.571770000" lon="-71.994550000">
<ele>0</ele>
<time>2026-09-04T06:42:23Z</time>
</trkpt>
<trkpt lat="46.571770000" lon="-71.994550000">
<ele>0</ele>
<time>2026-09-04T06:42:24Z</time>
</trkpt>
<trkpt lat="46.571690000" lon="-71.994920000">
<ele>0</ele>
<time>2026-09-04T06:42:25Z</time>
</trkpt>
<trkpt lat="46.571680000" lon="-71.995190000">
<ele>0</ele>
<time>2026-09-04T06:42:26Z</time>
</trkpt>
<trkpt lat="46.571720000" lon="-71.995460000">
<ele>0</ele>
<time>2026-09-04T06:42:27Z</time>
</trkpt>
<trkpt lat="46.571770000" lon="-71.995680000">
<ele>0</ele>
<time>2026-09-04T06:42:28Z</time>
</trkpt>
<trkpt lat="46.571840000" lon="-71.995860000">
<ele>0</ele>
<time>2026-09-04T06:42:29Z</time>
</trkpt>
<trkpt lat="46.572020000" lon="-71.996320000">
<ele>0</ele>
<time>2026-09-04T06:42:30Z</time>
</trkpt>
<trkpt lat="46.572090000" lon="-71.996630000">
<ele>0</ele>
<time>2026-09-04T06:42:31Z</time>
</trkpt>
<trkpt lat="46.572070000" lon="-71.996910000">
<ele>0</ele>
<time>2026-09-04T06:42:32Z</time>
</trkpt>
<trkpt lat="46.572030000" lon="-71.997090000">
<ele>0</ele>
<time>2026-09-04T06:42:33Z</time>
</trkpt>
<trkpt lat="46.571940000" lon="-71.997340000">
<ele>0</ele>
<time>2026-09-04T06:42:34Z</time>
</trkpt>
<trkpt lat="46.571710000" lon="-71.997820000">
<ele>0</ele>
<time>2026-09-04T06:42:35Z</time>
</trkpt>
<trkpt lat="46.571590000" lon="-71.998020000">
<ele>0</ele>
<time>2026-09-04T06:42:36Z</time>
</trkpt>
<trkpt lat="46.571470000" lon="-71.998310000">
<ele>0</ele>
<time>2026-09-04T06:42:37Z</time>
</trkpt>
<trkpt lat="46.571330000" lon="-71.998830000">
<ele>0</ele>
<time>2026-09-04T06:42:38Z</time>
</trkpt>
<trkpt lat="46.571150000" lon="-71.999260000">
<ele>0</ele>
<time>2026-09-04T06:42:39Z</time>
</trkpt>
<trkpt lat="46.571040000" lon="-71.999540000">
<ele>0</ele>
<time>2026-09-04T06:42:40Z</time>
</trkpt>
<trkpt lat="46.570980000" lon="-71.999660000">
<ele>0</ele>
<time>2026-09-04T06:42:41Z</time>
</trkpt>
<trkpt lat="46.570860000" lon="-71.999800000">
<ele>0</ele>
<time>2026-09-04T06:42:42Z</time>
</trkpt>
<trkpt lat="46.570620000" lon="-72.000070000">
<ele>0</ele>
<time>2026-09-04T06:42:43Z</time>
</trkpt>
<trkpt lat="46.570430000" lon="-72.000250000">
<ele>0</ele>
<time>2026-09-04T06:42:44Z</time>
</trkpt>
<trkpt lat="46.570160000" lon="-72.000480000">
<ele>0</ele>
<time>2026-09-04T06:42:45Z</time>
</trkpt>
<trkpt lat="46.569790000" lon="-72.000760000">
<ele>0</ele>
<time>2026-09-04T06:42:46Z</time>
</trkpt>
<trkpt lat="46.569540000" lon="-72.000980000">
<ele>0</ele>
<time>2026-09-04T06:42:47Z</time>
</trkpt>
<trkpt lat="46.569260000" lon="-72.001290000">
<ele>0</ele>
<time>2026-09-04T06:42:48Z</time>
</trkpt>
<trkpt lat="46.569050000" lon="-72.001550000">
<ele>0</ele>
<time>2026-09-04T06:42:49Z</time>
</trkpt>
<trkpt lat="46.568860000" lon="-72.001840000">
<ele>0</ele>
<time>2026-09-04T06:42:50Z</time>
</trkpt>
<trkpt lat="46.568700000" lon="-72.002100000">
<ele>0</ele>
<time>2026-09-04T06:42:51Z</time>
</trkpt>
<trkpt lat="46.568470000" lon="-72.002590000">
<ele>0</ele>
<time>2026-09-04T06:42:52Z</time>
</trkpt>
<trkpt lat="46.567870000" lon="-72.004200000">
<ele>0</ele>
<time>2026-09-04T06:42:53Z</time>
</trkpt>
<trkpt lat="46.567650000" lon="-72.004790000">
<ele>0</ele>
<time>2026-09-04T06:42:54Z</time>
</trkpt>
<trkpt lat="46.567410000" lon="-72.005300000">
<ele>0</ele>
<time>2026-09-04T06:42:55Z</time>
</trkpt>
<trkpt lat="46.567000000" lon="-72.006070000">
<ele>0</ele>
<time>2026-09-04T06:42:56Z</time>
</trkpt>
<trkpt lat="46.565500000" lon="-72.008430000">
<ele>0</ele>
<time>2026-09-04T06:42:57Z</time>
</trkpt>
<trkpt lat="46.564840000" lon="-72.009480000">
<ele>0</ele>
<time>2026-09-04T06:42:58Z</time>
</trkpt>
<trkpt lat="46.564720000" lon="-72.009670000">
<ele>0</ele>
<time>2026-09-04T06:42:59Z</time>
</trkpt>
<trkpt lat="46.564190000" lon="-72.010580000">
<ele>0</ele>
<time>2026-09-04T06:43:00Z</time>
</trkpt>
<trkpt lat="46.563610000" lon="-72.011740000">
<ele>0</ele>
<time>2026-09-04T06:43:01Z</time>
</trkpt>
<trkpt lat="46.563090000" lon="-72.012770000">
<ele>0</ele>
<time>2026-09-04T06:43:02Z</time>
</trkpt>
<trkpt lat="46.562670000" lon="-72.013510000">
<ele>0</ele>
<time>2026-09-04T06:43:03Z</time>
</trkpt>
<trkpt lat="46.561900000" lon="-72.014790000">
<ele>0</ele>
<time>2026-09-04T06:43:04Z</time>
</trkpt>
<trkpt lat="46.561470000" lon="-72.015490000">
<ele>0</ele>
<time>2026-09-04T06:43:05Z</time>
</trkpt>
<trkpt lat="46.560930000" lon="-72.016320000">
<ele>0</ele>
<time>2026-09-04T06:43:06Z</time>
</trkpt>
<trkpt lat="46.559740000" lon="-72.017930000">
<ele>0</ele>
<time>2026-09-04T06:43:07Z</time>
</trkpt>
<trkpt lat="46.557290000" lon="-72.021140000">
<ele>0</ele>
<time>2026-09-04T06:43:08Z</time>
</trkpt>
<trkpt lat="46.556370000" lon="-72.022370000">
<ele>0</ele>
<time>2026-09-04T06:43:09Z</time>
</trkpt>
<trkpt lat="46.555990000" lon="-72.022910000">
<ele>0</ele>
<time>2026-09-04T06:43:10Z</time>
</trkpt>
<trkpt lat="46.555740000" lon="-72.023380000">
<ele>0</ele>
<time>2026-09-04T06:43:11Z</time>
</trkpt>
<trkpt lat="46.555560000" lon="-72.023780000">
<ele>0</ele>
<time>2026-09-04T06:43:12Z</time>
</trkpt>
<trkpt lat="46.555400000" lon="-72.024250000">
<ele>0</ele>
<time>2026-09-04T06:43:13Z</time>
</trkpt>
<trkpt lat="46.555210000" lon="-72.024900000">
<ele>0</ele>
<time>2026-09-04T06:43:14Z</time>
</trkpt>
<trkpt lat="46.554870000" lon="-72.026270000">
<ele>0</ele>
<time>2026-09-04T06:43:15Z</time>
</trkpt>
<trkpt lat="46.554640000" lon="-72.026900000">
<ele>0</ele>
<time>2026-09-04T06:43:16Z</time>
</trkpt>
<trkpt lat="46.554550000" lon="-72.027110000">
<ele>0</ele>
<time>2026-09-04T06:43:17Z</time>
</trkpt>
<trkpt lat="46.554350000" lon="-72.027500000">
<ele>0</ele>
<time>2026-09-04T06:43:18Z</time>
</trkpt>
<trkpt lat="46.554090000" lon="-72.027930000">
<ele>0</ele>
<time>2026-09-04T06:43:19Z</time>
</trkpt>
<trkpt lat="46.553770000" lon="-72.028360000">
<ele>0</ele>
<time>2026-09-04T06:43:20Z</time>
</trkpt>
<trkpt lat="46.553400000" lon="-72.028770000">
<ele>0</ele>
<time>2026-09-04T06:43:21Z</time>
</trkpt>
<trkpt lat="46.552830000" lon="-72.029400000">
<ele>0</ele>
<time>2026-09-04T06:43:22Z</time>
</trkpt>
<trkpt lat="46.551130000" lon="-72.031220000">
<ele>0</ele>
<time>2026-09-04T06:43:23Z</time>
</trkpt>
<trkpt lat="46.550840000" lon="-72.031590000">
<ele>0</ele>
<time>2026-09-04T06:43:24Z</time>
</trkpt>
<trkpt lat="46.550730000" lon="-72.031780000">
<ele>0</ele>
<time>2026-09-04T06:43:25Z</time>
</trkpt>
<trkpt lat="46.550560000" lon="-72.032140000">
<ele>0</ele>
<time>2026-09-04T06:43:26Z</time>
</trkpt>
<trkpt lat="46.550420000" lon="-72.032530000">
<ele>0</ele>
<time>2026-09-04T06:43:27Z</time>
</trkpt>
<trkpt lat="46.550320000" lon="-72.032910000">
<ele>0</ele>
<time>2026-09-04T06:43:28Z</time>
</trkpt>
<trkpt lat="46.550250000" lon="-72.033350000">
<ele>0</ele>
<time>2026-09-04T06:43:29Z</time>
</trkpt>
<trkpt lat="46.550230000" lon="-72.033750000">
<ele>0</ele>
<time>2026-09-04T06:43:30Z</time>
</trkpt>
<trkpt lat="46.550250000" lon="-72.034280000">
<ele>0</ele>
<time>2026-09-04T06:43:31Z</time>
</trkpt>
<trkpt lat="46.550320000" lon="-72.034740000">
<ele>0</ele>
<time>2026-09-04T06:43:32Z</time>
</trkpt>
<trkpt lat="46.550450000" lon="-72.035260000">
<ele>0</ele>
<time>2026-09-04T06:43:33Z</time>
</trkpt>
<trkpt lat="46.550710000" lon="-72.035800000">
<ele>0</ele>
<time>2026-09-04T06:43:34Z</time>
</trkpt>
<trkpt lat="46.550950000" lon="-72.036180000">
<ele>0</ele>
<time>2026-09-04T06:43:35Z</time>
</trkpt>
<trkpt lat="46.551910000" lon="-72.037530000">
<ele>0</ele>
<time>2026-09-04T06:43:36Z</time>
</trkpt>
<trkpt lat="46.553490000" lon="-72.039720000">
<ele>0</ele>
<time>2026-09-04T06:43:37Z</time>
</trkpt>
<trkpt lat="46.553490000" lon="-72.039720000">
<ele>0</ele>
<time>2026-09-04T06:43:38Z</time>
</trkpt>
<trkpt lat="46.554640000" lon="-72.041320000">
<ele>0</ele>
<time>2026-09-04T06:43:39Z</time>
</trkpt>
<trkpt lat="46.555050000" lon="-72.041840000">
<ele>0</ele>
<time>2026-09-04T06:43:40Z</time>
</trkpt>
<trkpt lat="46.555330000" lon="-72.042170000">
<ele>0</ele>
<time>2026-09-04T06:43:41Z</time>
</trkpt>
<trkpt lat="46.555570000" lon="-72.042390000">
<ele>0</ele>
<time>2026-09-04T06:43:42Z</time>
</trkpt>
<trkpt lat="46.555960000" lon="-72.042690000">
<ele>0</ele>
<time>2026-09-04T06:43:43Z</time>
</trkpt>
<trkpt lat="46.556610000" lon="-72.043100000">
<ele>0</ele>
<time>2026-09-04T06:43:44Z</time>
</trkpt>
<trkpt lat="46.557610000" lon="-72.043710000">
<ele>0</ele>
<time>2026-09-04T06:43:45Z</time>
</trkpt>
<trkpt lat="46.557940000" lon="-72.043910000">
<ele>0</ele>
<time>2026-09-04T06:43:46Z</time>
</trkpt>
<trkpt lat="46.558170000" lon="-72.044100000">
<ele>0</ele>
<time>2026-09-04T06:43:47Z</time>
</trkpt>
<trkpt lat="46.558340000" lon="-72.044280000">
<ele>0</ele>
<time>2026-09-04T06:43:48Z</time>
</trkpt>
<trkpt lat="46.558730000" lon="-72.044780000">
<ele>0</ele>
<time>2026-09-04T06:43:49Z</time>
</trkpt>
<trkpt lat="46.558940000" lon="-72.045130000">
<ele>0</ele>
<time>2026-09-04T06:43:50Z</time>
</trkpt>
<trkpt lat="46.559150000" lon="-72.045540000">
<ele>0</ele>
<time>2026-09-04T06:43:51Z</time>
</trkpt>
<trkpt lat="46.559330000" lon="-72.046000000">
<ele>0</ele>
<time>2026-09-04T06:43:52Z</time>
</trkpt>
<trkpt lat="46.559690000" lon="-72.047200000">
<ele>0</ele>
<time>2026-09-04T06:43:53Z</time>
</trkpt>
<trkpt lat="46.559880000" lon="-72.047940000">
<ele>0</ele>
<time>2026-09-04T06:43:54Z</time>
</trkpt>
<trkpt lat="46.559970000" lon="-72.048430000">
<ele>0</ele>
<time>2026-09-04T06:43:55Z</time>
</trkpt>
<trkpt lat="46.560020000" lon="-72.048970000">
<ele>0</ele>
<time>2026-09-04T06:43:56Z</time>
</trkpt>
<trkpt lat="46.560020000" lon="-72.049780000">
<ele>0</ele>
<time>2026-09-04T06:43:57Z</time>
</trkpt>
<trkpt lat="46.559950000" lon="-72.050520000">
<ele>0</ele>
<time>2026-09-04T06:43:58Z</time>
</trkpt>
<trkpt lat="46.559340000" lon="-72.055140000">
<ele>0</ele>
<time>2026-09-04T06:43:59Z</time>
</trkpt>
<trkpt lat="46.559220000" lon="-72.056000000">
<ele>0</ele>
<time>2026-09-04T06:44:00Z</time>
</trkpt>
<trkpt lat="46.559010000" lon="-72.057170000">
<ele>0</ele>
<time>2026-09-04T06:44:01Z</time>
</trkpt>
<trkpt lat="46.558320000" lon="-72.060580000">
<ele>0</ele>
<time>2026-09-04T06:44:02Z</time>
</trkpt>
<trkpt lat="46.558170000" lon="-72.061360000">
<ele>0</ele>
<time>2026-09-04T06:44:03Z</time>
</trkpt>
<trkpt lat="46.558130000" lon="-72.061690000">
<ele>0</ele>
<time>2026-09-04T06:44:04Z</time>
</trkpt>
<trkpt lat="46.558090000" lon="-72.062050000">
<ele>0</ele>
<time>2026-09-04T06:44:05Z</time>
</trkpt>
<trkpt lat="46.558080000" lon="-72.062450000">
<ele>0</ele>
<time>2026-09-04T06:44:06Z</time>
</trkpt>
<trkpt lat="46.558120000" lon="-72.063240000">
<ele>0</ele>
<time>2026-09-04T06:44:07Z</time>
</trkpt>
<trkpt lat="46.558270000" lon="-72.064220000">
<ele>0</ele>
<time>2026-09-04T06:44:08Z</time>
</trkpt>
<trkpt lat="46.558740000" lon="-72.066480000">
<ele>0</ele>
<time>2026-09-04T06:44:09Z</time>
</trkpt>
<trkpt lat="46.558850000" lon="-72.067160000">
<ele>0</ele>
<time>2026-09-04T06:44:10Z</time>
</trkpt>
<trkpt lat="46.558890000" lon="-72.067660000">
<ele>0</ele>
<time>2026-09-04T06:44:11Z</time>
</trkpt>
<trkpt lat="46.558880000" lon="-72.068090000">
<ele>0</ele>
<time>2026-09-04T06:44:12Z</time>
</trkpt>
<trkpt lat="46.558850000" lon="-72.068420000">
<ele>0</ele>
<time>2026-09-04T06:44:13Z</time>
</trkpt>
<trkpt lat="46.558780000" lon="-72.068840000">
<ele>0</ele>
<time>2026-09-04T06:44:14Z</time>
</trkpt>
<trkpt lat="46.558710000" lon="-72.069190000">
<ele>0</ele>
<time>2026-09-04T06:44:15Z</time>
</trkpt>
<trkpt lat="46.558540000" lon="-72.069730000">
<ele>0</ele>
<time>2026-09-04T06:44:16Z</time>
</trkpt>
<trkpt lat="46.557650000" lon="-72.071920000">
<ele>0</ele>
<time>2026-09-04T06:44:17Z</time>
</trkpt>
<trkpt lat="46.555990000" lon="-72.075960000">
<ele>0</ele>
<time>2026-09-04T06:44:18Z</time>
</trkpt>
<trkpt lat="46.555640000" lon="-72.076810000">
<ele>0</ele>
<time>2026-09-04T06:44:19Z</time>
</trkpt>
<trkpt lat="46.555450000" lon="-72.077320000">
<ele>0</ele>
<time>2026-09-04T06:44:20Z</time>
</trkpt>
<trkpt lat="46.555330000" lon="-72.077810000">
<ele>0</ele>
<time>2026-09-04T06:44:21Z</time>
</trkpt>
<trkpt lat="46.555230000" lon="-72.078550000">
<ele>0</ele>
<time>2026-09-04T06:44:22Z</time>
</trkpt>
<trkpt lat="46.555220000" lon="-72.079220000">
<ele>0</ele>
<time>2026-09-04T06:44:23Z</time>
</trkpt>
<trkpt lat="46.555260000" lon="-72.079850000">
<ele>0</ele>
<time>2026-09-04T06:44:24Z</time>
</trkpt>
<trkpt lat="46.555390000" lon="-72.080610000">
<ele>0</ele>
<time>2026-09-04T06:44:25Z</time>
</trkpt>
<trkpt lat="46.555470000" lon="-72.081120000">
<ele>0</ele>
<time>2026-09-04T06:44:26Z</time>
</trkpt>
<trkpt lat="46.555740000" lon="-72.082910000">
<ele>0</ele>
<time>2026-09-04T06:44:27Z</time>
</trkpt>
<trkpt lat="46.555920000" lon="-72.084260000">
<ele>0</ele>
<time>2026-09-04T06:44:28Z</time>
</trkpt>
<trkpt lat="46.556060000" lon="-72.085160000">
<ele>0</ele>
<time>2026-09-04T06:44:29Z</time>
</trkpt>
<trkpt lat="46.556220000" lon="-72.085910000">
<ele>0</ele>
<time>2026-09-04T06:44:30Z</time>
</trkpt>
<trkpt lat="46.556290000" lon="-72.086480000">
<ele>0</ele>
<time>2026-09-04T06:44:31Z</time>
</trkpt>
<trkpt lat="46.556450000" lon="-72.088110000">
<ele>0</ele>
<time>2026-09-04T06:44:32Z</time>
</trkpt>
<trkpt lat="46.556530000" lon="-72.089940000">
<ele>0</ele>
<time>2026-09-04T06:44:33Z</time>
</trkpt>
<trkpt lat="46.556610000" lon="-72.092140000">
<ele>0</ele>
<time>2026-09-04T06:44:34Z</time>
</trkpt>
<trkpt lat="46.556680000" lon="-72.093210000">
<ele>0</ele>
<time>2026-09-04T06:44:35Z</time>
</trkpt>
<trkpt lat="46.556760000" lon="-72.093830000">
<ele>0</ele>
<time>2026-09-04T06:44:36Z</time>
</trkpt>
<trkpt lat="46.556850000" lon="-72.094520000">
<ele>0</ele>
<time>2026-09-04T06:44:37Z</time>
</trkpt>
<trkpt lat="46.557010000" lon="-72.095290000">
<ele>0</ele>
<time>2026-09-04T06:44:38Z</time>
</trkpt>
<trkpt lat="46.557150000" lon="-72.095830000">
<ele>0</ele>
<time>2026-09-04T06:44:39Z</time>
</trkpt>
<trkpt lat="46.557410000" lon="-72.096670000">
<ele>0</ele>
<time>2026-09-04T06:44:40Z</time>
</trkpt>
<trkpt lat="46.557880000" lon="-72.098090000">
<ele>0</ele>
<time>2026-09-04T06:44:41Z</time>
</trkpt>
<trkpt lat="46.558150000" lon="-72.099010000">
<ele>0</ele>
<time>2026-09-04T06:44:42Z</time>
</trkpt>
<trkpt lat="46.558270000" lon="-72.099500000">
<ele>0</ele>
<time>2026-09-04T06:44:43Z</time>
</trkpt>
<trkpt lat="46.558360000" lon="-72.099960000">
<ele>0</ele>
<time>2026-09-04T06:44:44Z</time>
</trkpt>
<trkpt lat="46.558470000" lon="-72.100610000">
<ele>0</ele>
<time>2026-09-04T06:44:45Z</time>
</trkpt>
<trkpt lat="46.558610000" lon="-72.102110000">
<ele>0</ele>
<time>2026-09-04T06:44:46Z</time>
</trkpt>
<trkpt lat="46.558780000" lon="-72.103430000">
<ele>0</ele>
<time>2026-09-04T06:44:47Z</time>
</trkpt>
<trkpt lat="46.558910000" lon="-72.104190000">
<ele>0</ele>
<time>2026-09-04T06:44:48Z</time>
</trkpt>
<trkpt lat="46.559060000" lon="-72.104940000">
<ele>0</ele>
<time>2026-09-04T06:44:49Z</time>
</trkpt>
<trkpt lat="46.559260000" lon="-72.105800000">
<ele>0</ele>
<time>2026-09-04T06:44:50Z</time>
</trkpt>
<trkpt lat="46.559280000" lon="-72.106310000">
<ele>0</ele>
<time>2026-09-04T06:44:51Z</time>
</trkpt>
<trkpt lat="46.559230000" lon="-72.107140000">
<ele>0</ele>
<time>2026-09-04T06:44:52Z</time>
</trkpt>
<trkpt lat="46.559150000" lon="-72.107560000">
<ele>0</ele>
<time>2026-09-04T06:44:53Z</time>
</trkpt>
<trkpt lat="46.558980000" lon="-72.108180000">
<ele>0</ele>
<time>2026-09-04T06:44:54Z</time>
</trkpt>
<trkpt lat="46.558860000" lon="-72.108730000">
<ele>0</ele>
<time>2026-09-04T06:44:55Z</time>
</trkpt>
<trkpt lat="46.558510000" lon="-72.110540000">
<ele>0</ele>
<time>2026-09-04T06:44:56Z</time>
</trkpt>
<trkpt lat="46.558280000" lon="-72.111910000">
<ele>0</ele>
<time>2026-09-04T06:44:57Z</time>
</trkpt>
<trkpt lat="46.558160000" lon="-72.112390000">
<ele>0</ele>
<time>2026-09-04T06:44:58Z</time>
</trkpt>
<trkpt lat="46.558040000" lon="-72.112730000">
<ele>0</ele>
<time>2026-09-04T06:44:59Z</time>
</trkpt>
<trkpt lat="46.557910000" lon="-72.113010000">
<ele>0</ele>
<time>2026-09-04T06:45:00Z</time>
</trkpt>
<trkpt lat="46.557570000" lon="-72.113510000">
<ele>0</ele>
<time>2026-09-04T06:45:01Z</time>
</trkpt>
<trkpt lat="46.557310000" lon="-72.113820000">
<ele>0</ele>
<time>2026-09-04T06:45:02Z</time>
</trkpt>
<trkpt lat="46.556970000" lon="-72.114340000">
<ele>0</ele>
<time>2026-09-04T06:45:03Z</time>
</trkpt>
<trkpt lat="46.556430000" lon="-72.115200000">
<ele>0</ele>
<time>2026-09-04T06:45:04Z</time>
</trkpt>
<trkpt lat="46.556190000" lon="-72.115760000">
<ele>0</ele>
<time>2026-09-04T06:45:05Z</time>
</trkpt>
<trkpt lat="46.556010000" lon="-72.116290000">
<ele>0</ele>
<time>2026-09-04T06:45:06Z</time>
</trkpt>
<trkpt lat="46.555720000" lon="-72.117310000">
<ele>0</ele>
<time>2026-09-04T06:45:07Z</time>
</trkpt>
<trkpt lat="46.555620000" lon="-72.117650000">
<ele>0</ele>
<time>2026-09-04T06:45:08Z</time>
</trkpt>
<trkpt lat="46.555270000" lon="-72.118870000">
<ele>0</ele>
<time>2026-09-04T06:45:09Z</time>
</trkpt>
<trkpt lat="46.554940000" lon="-72.119990000">
<ele>0</ele>
<time>2026-09-04T06:45:10Z</time>
</trkpt>
<trkpt lat="46.554940000" lon="-72.119990000">
<ele>0</ele>
<time>2026-09-04T06:45:11Z</time>
</trkpt>
<trkpt lat="46.554840000" lon="-72.120320000">
<ele>0</ele>
<time>2026-09-04T06:45:12Z</time>
</trkpt>
<trkpt lat="46.554670000" lon="-72.120740000">
<ele>0</ele>
<time>2026-09-04T06:45:13Z</time>
</trkpt>
<trkpt lat="46.554190000" lon="-72.121750000">
<ele>0</ele>
<time>2026-09-04T06:45:14Z</time>
</trkpt>
<trkpt lat="46.554000000" lon="-72.122100000">
<ele>0</ele>
<time>2026-09-04T06:45:15Z</time>
</trkpt>
<trkpt lat="46.553740000" lon="-72.122540000">
<ele>0</ele>
<time>2026-09-04T06:45:16Z</time>
</trkpt>
<trkpt lat="46.553440000" lon="-72.122910000">
<ele>0</ele>
<time>2026-09-04T06:45:17Z</time>
</trkpt>
<trkpt lat="46.553020000" lon="-72.123370000">
<ele>0</ele>
<time>2026-09-04T06:45:18Z</time>
</trkpt>
<trkpt lat="46.552730000" lon="-72.123640000">
<ele>0</ele>
<time>2026-09-04T06:45:19Z</time>
</trkpt>
<trkpt lat="46.552160000" lon="-72.124140000">
<ele>0</ele>
<time>2026-09-04T06:45:20Z</time>
</trkpt>
<trkpt lat="46.551900000" lon="-72.124380000">
<ele>0</ele>
<time>2026-09-04T06:45:21Z</time>
</trkpt>
<trkpt lat="46.551710000" lon="-72.124630000">
<ele>0</ele>
<time>2026-09-04T06:45:22Z</time>
</trkpt>
<trkpt lat="46.551430000" lon="-72.125030000">
<ele>0</ele>
<time>2026-09-04T06:45:23Z</time>
</trkpt>
<trkpt lat="46.550440000" lon="-72.126630000">
<ele>0</ele>
<time>2026-09-04T06:45:24Z</time>
</trkpt>
<trkpt lat="46.549880000" lon="-72.127680000">
<ele>0</ele>
<time>2026-09-04T06:45:25Z</time>
</trkpt>
<trkpt lat="46.549660000" lon="-72.128170000">
<ele>0</ele>
<time>2026-09-04T06:45:26Z</time>
</trkpt>
<trkpt lat="46.548040000" lon="-72.131600000">
<ele>0</ele>
<time>2026-09-04T06:45:27Z</time>
</trkpt>
<trkpt lat="46.547630000" lon="-72.132580000">
<ele>0</ele>
<time>2026-09-04T06:45:28Z</time>
</trkpt>
<trkpt lat="46.547390000" lon="-72.133220000">
<ele>0</ele>
<time>2026-09-04T06:45:29Z</time>
</trkpt>
<trkpt lat="46.546390000" lon="-72.136470000">
<ele>0</ele>
<time>2026-09-04T06:45:30Z</time>
</trkpt>
<trkpt lat="46.545850000" lon="-72.138230000">
<ele>0</ele>
<time>2026-09-04T06:45:31Z</time>
</trkpt>
<trkpt lat="46.545700000" lon="-72.138700000">
<ele>0</ele>
<time>2026-09-04T06:45:32Z</time>
</trkpt>
<trkpt lat="46.545110000" lon="-72.140560000">
<ele>0</ele>
<time>2026-09-04T06:45:33Z</time>
</trkpt>
<trkpt lat="46.544460000" lon="-72.143270000">
<ele>0</ele>
<time>2026-09-04T06:45:34Z</time>
</trkpt>
<trkpt lat="46.543860000" lon="-72.145890000">
<ele>0</ele>
<time>2026-09-04T06:45:35Z</time>
</trkpt>
<trkpt lat="46.543660000" lon="-72.146590000">
<ele>0</ele>
<time>2026-09-04T06:45:36Z</time>
</trkpt>
<trkpt lat="46.543520000" lon="-72.147110000">
<ele>0</ele>
<time>2026-09-04T06:45:37Z</time>
</trkpt>
<trkpt lat="46.543290000" lon="-72.147840000">
<ele>0</ele>
<time>2026-09-04T06:45:38Z</time>
</trkpt>
<trkpt lat="46.542960000" lon="-72.148720000">
<ele>0</ele>
<time>2026-09-04T06:45:39Z</time>
</trkpt>
<trkpt lat="46.542480000" lon="-72.149840000">
<ele>0</ele>
<time>2026-09-04T06:45:40Z</time>
</trkpt>
<trkpt lat="46.540860000" lon="-72.153420000">
<ele>0</ele>
<time>2026-09-04T06:45:41Z</time>
</trkpt>
<trkpt lat="46.540300000" lon="-72.154760000">
<ele>0</ele>
<time>2026-09-04T06:45:42Z</time>
</trkpt>
<trkpt lat="46.539890000" lon="-72.155930000">
<ele>0</ele>
<time>2026-09-04T06:45:43Z</time>
</trkpt>
<trkpt lat="46.539590000" lon="-72.156960000">
<ele>0</ele>
<time>2026-09-04T06:45:44Z</time>
</trkpt>
<trkpt lat="46.538740000" lon="-72.160210000">
<ele>0</ele>
<time>2026-09-04T06:45:45Z</time>
</trkpt>
<trkpt lat="46.538580000" lon="-72.160710000">
<ele>0</ele>
<time>2026-09-04T06:45:46Z</time>
</trkpt>
<trkpt lat="46.538390000" lon="-72.161230000">
<ele>0</ele>
<time>2026-09-04T06:45:47Z</time>
</trkpt>
<trkpt lat="46.537940000" lon="-72.162250000">
<ele>0</ele>
<time>2026-09-04T06:45:48Z</time>
</trkpt>
<trkpt lat="46.536900000" lon="-72.164270000">
<ele>0</ele>
<time>2026-09-04T06:45:49Z</time>
</trkpt>
<trkpt lat="46.536650000" lon="-72.164690000">
<ele>0</ele>
<time>2026-09-04T06:45:50Z</time>
</trkpt>
<trkpt lat="46.536390000" lon="-72.165020000">
<ele>0</ele>
<time>2026-09-04T06:45:51Z</time>
</trkpt>
<trkpt lat="46.536000000" lon="-72.165400000">
<ele>0</ele>
<time>2026-09-04T06:45:52Z</time>
</trkpt>
<trkpt lat="46.535470000" lon="-72.165780000">
<ele>0</ele>
<time>2026-09-04T06:45:53Z</time>
</trkpt>
<trkpt lat="46.534550000" lon="-72.166410000">
<ele>0</ele>
<time>2026-09-04T06:45:54Z</time>
</trkpt>
<trkpt lat="46.531600000" lon="-72.168360000">
<ele>0</ele>
<time>2026-09-04T06:45:55Z</time>
</trkpt>
<trkpt lat="46.529060000" lon="-72.170050000">
<ele>0</ele>
<time>2026-09-04T06:45:56Z</time>
</trkpt>
<trkpt lat="46.526470000" lon="-72.171780000">
<ele>0</ele>
<time>2026-09-04T06:45:57Z</time>
</trkpt>
<trkpt lat="46.526470000" lon="-72.171780000">
<ele>0</ele>
<time>2026-09-04T06:45:58Z</time>
</trkpt>
<trkpt lat="46.526040000" lon="-72.172050000">
<ele>0</ele>
<time>2026-09-04T06:45:59Z</time>
</trkpt>
<trkpt lat="46.525470000" lon="-72.172460000">
<ele>0</ele>
<time>2026-09-04T06:46:00Z</time>
</trkpt>
<trkpt lat="46.525260000" lon="-72.172630000">
<ele>0</ele>
<time>2026-09-04T06:46:01Z</time>
</trkpt>
<trkpt lat="46.524860000" lon="-72.173000000">
<ele>0</ele>
<time>2026-09-04T06:46:02Z</time>
</trkpt>
<trkpt lat="46.522210000" lon="-72.175790000">
<ele>0</ele>
<time>2026-09-04T06:46:03Z</time>
</trkpt>
<trkpt lat="46.520320000" lon="-72.177790000">
<ele>0</ele>
<time>2026-09-04T06:46:04Z</time>
</trkpt>
<trkpt lat="46.517530000" lon="-72.180750000">
<ele>0</ele>
<time>2026-09-04T06:46:05Z</time>
</trkpt>
<trkpt lat="46.515960000" lon="-72.182420000">
<ele>0</ele>
<time>2026-09-04T06:46:06Z</time>
</trkpt>
<trkpt lat="46.514680000" lon="-72.183840000">
<ele>0</ele>
<time>2026-09-04T06:46:07Z</time>
</trkpt>
<trkpt lat="46.514250000" lon="-72.184390000">
<ele>0</ele>
<time>2026-09-04T06:46:08Z</time>
</trkpt>
<trkpt lat="46.513490000" lon="-72.185500000">
<ele>0</ele>
<time>2026-09-04T06:46:09Z</time>
</trkpt>
<trkpt lat="46.513110000" lon="-72.186090000">
<ele>0</ele>
<time>2026-09-04T06:46:10Z</time>
</trkpt>
<trkpt lat="46.512530000" lon="-72.187100000">
<ele>0</ele>
<time>2026-09-04T06:46:11Z</time>
</trkpt>
<trkpt lat="46.512150000" lon="-72.187830000">
<ele>0</ele>
<time>2026-09-04T06:46:12Z</time>
</trkpt>
<trkpt lat="46.511820000" lon="-72.188540000">
<ele>0</ele>
<time>2026-09-04T06:46:13Z</time>
</trkpt>
<trkpt lat="46.511780000" lon="-72.188610000">
<ele>0</ele>
<time>2026-09-04T06:46:14Z</time>
</trkpt>
<trkpt lat="46.511780000" lon="-72.188610000">
<ele>0</ele>
<time>2026-09-04T06:46:15Z</time>
</trkpt>
<trkpt lat="46.511320000" lon="-72.189690000">
<ele>0</ele>
<time>2026-09-04T06:46:16Z</time>
</trkpt>
<trkpt lat="46.511030000" lon="-72.190420000">
<ele>0</ele>
<time>2026-09-04T06:46:17Z</time>
</trkpt>
<trkpt lat="46.510810000" lon="-72.191070000">
<ele>0</ele>
<time>2026-09-04T06:46:18Z</time>
</trkpt>
<trkpt lat="46.510520000" lon="-72.191950000">
<ele>0</ele>
<time>2026-09-04T06:46:19Z</time>
</trkpt>
<trkpt lat="46.510260000" lon="-72.192860000">
<ele>0</ele>
<time>2026-09-04T06:46:20Z</time>
</trkpt>
<trkpt lat="46.510050000" lon="-72.193660000">
<ele>0</ele>
<time>2026-09-04T06:46:21Z</time>
</trkpt>
<trkpt lat="46.509240000" lon="-72.196940000">
<ele>0</ele>
<time>2026-09-04T06:46:22Z</time>
</trkpt>
<trkpt lat="46.509130000" lon="-72.197440000">
<ele>0</ele>
<time>2026-09-04T06:46:23Z</time>
</trkpt>
<trkpt lat="46.509000000" lon="-72.198360000">
<ele>0</ele>
<time>2026-09-04T06:46:24Z</time>
</trkpt>
<trkpt lat="46.508610000" lon="-72.200480000">
<ele>0</ele>
<time>2026-09-04T06:46:25Z</time>
</trkpt>
<trkpt lat="46.508300000" lon="-72.201710000">
<ele>0</ele>
<time>2026-09-04T06:46:26Z</time>
</trkpt>
<trkpt lat="46.507890000" lon="-72.203250000">
<ele>0</ele>
<time>2026-09-04T06:46:27Z</time>
</trkpt>
<trkpt lat="46.507810000" lon="-72.203480000">
<ele>0</ele>
<time>2026-09-04T06:46:28Z</time>
</trkpt>
<trkpt lat="46.507590000" lon="-72.203940000">
<ele>0</ele>
<time>2026-09-04T06:46:29Z</time>
</trkpt>
<trkpt lat="46.507300000" lon="-72.204360000">
<ele>0</ele>
<time>2026-09-04T06:46:30Z</time>
</trkpt>
<trkpt lat="46.506870000" lon="-72.204880000">
<ele>0</ele>
<time>2026-09-04T06:46:31Z</time>
</trkpt>
<trkpt lat="46.506720000" lon="-72.205030000">
<ele>0</ele>
<time>2026-09-04T06:46:32Z</time>
</trkpt>
<trkpt lat="46.506430000" lon="-72.205240000">
<ele>0</ele>
<time>2026-09-04T06:46:33Z</time>
</trkpt>
<trkpt lat="46.505730000" lon="-72.205650000">
<ele>0</ele>
<time>2026-09-04T06:46:34Z</time>
</trkpt>
<trkpt lat="46.505570000" lon="-72.205710000">
<ele>0</ele>
<time>2026-09-04T06:46:35Z</time>
</trkpt>
<trkpt lat="46.505500000" lon="-72.205710000">
<ele>0</ele>
<time>2026-09-04T06:46:36Z</time>
</trkpt>
<trkpt lat="46.505380000" lon="-72.205670000">
<ele>0</ele>
<time>2026-09-04T06:46:37Z</time>
</trkpt>
<trkpt lat="46.505310000" lon="-72.205610000">
<ele>0</ele>
<time>2026-09-04T06:46:38Z</time>
</trkpt>
<trkpt lat="46.505020000" lon="-72.205240000">
<ele>0</ele>
<time>2026-09-04T06:46:39Z</time>
</trkpt>
<trkpt lat="46.504320000" lon="-72.204260000">
<ele>0</ele>
<time>2026-09-04T06:46:40Z</time>
</trkpt>
<trkpt lat="46.504160000" lon="-72.204060000">
<ele>0</ele>
<time>2026-09-04T06:46:41Z</time>
</trkpt>
<trkpt lat="46.504000000" lon="-72.203910000">
<ele>0</ele>
<time>2026-09-04T06:46:42Z</time>
</trkpt>
<trkpt lat="46.503720000" lon="-72.203800000">
<ele>0</ele>
<time>2026-09-04T06:46:43Z</time>
</trkpt>
<trkpt lat="46.502830000" lon="-72.203630000">
<ele>0</ele>
<time>2026-09-04T06:46:44Z</time>
</trkpt>
<trkpt lat="46.502640000" lon="-72.203560000">
<ele>0</ele>
<time>2026-09-04T06:46:45Z</time>
</trkpt>
<trkpt lat="46.502640000" lon="-72.203560000">
<ele>0</ele>
<time>2026-09-04T06:46:46Z</time>
</trkpt>
<trkpt lat="46.502450000" lon="-72.203460000">
<ele>0</ele>
<time>2026-09-04T06:46:47Z</time>
</trkpt>
<trkpt lat="46.501950000" lon="-72.202980000">
<ele>0</ele>
<time>2026-09-04T06:46:48Z</time>
</trkpt>
<trkpt lat="46.501720000" lon="-72.202800000">
<ele>0</ele>
<time>2026-09-04T06:46:49Z</time>
</trkpt>
<trkpt lat="46.501490000" lon="-72.202690000">
<ele>0</ele>
<time>2026-09-04T06:46:50Z</time>
</trkpt>
<trkpt lat="46.499390000" lon="-72.201980000">
<ele>0</ele>
<time>2026-09-04T06:46:51Z</time>
</trkpt>
<trkpt lat="46.499500000" lon="-72.201500000">
<ele>0</ele>
<time>2026-09-04T06:46:52Z</time>
</trkpt>
<trkpt lat="46.499550000" lon="-72.201000000">
<ele>0</ele>
<time>2026-09-04T06:46:53Z</time>
</trkpt>
<trkpt lat="46.499550000" lon="-72.201000000">
<ele>0</ele>
<time>2026-09-04T06:46:54Z</time>
</trkpt>
<trkpt lat="46.499570000" lon="-72.200260000">
<ele>0</ele>
<time>2026-09-04T06:46:55Z</time>
</trkpt>
<trkpt lat="46.499500000" lon="-72.199600000">
<ele>0</ele>
<time>2026-09-04T06:46:56Z</time>
</trkpt>
<trkpt lat="46.499440000" lon="-72.199360000">
<ele>0</ele>
<time>2026-09-04T06:46:57Z</time>
</trkpt>
<trkpt lat="46.499400000" lon="-72.199260000">
<ele>0</ele>
<time>2026-09-04T06:46:58Z</time>
</trkpt>
<trkpt lat="46.499270000" lon="-72.199000000">
<ele>0</ele>
<time>2026-09-04T06:46:59Z</time>
</trkpt>
<trkpt lat="46.499050000" lon="-72.198670000">
<ele>0</ele>
<time>2026-09-04T06:47:00Z</time>
</trkpt>
<trkpt lat="46.498670000" lon="-72.198100000">
<ele>0</ele>
<time>2026-09-04T06:47:01Z</time>
</trkpt>
<trkpt lat="46.497750000" lon="-72.196880000">
<ele>0</ele>
<time>2026-09-04T06:47:02Z</time>
</trkpt>
<trkpt lat="46.495850000" lon="-72.194220000">
<ele>0</ele>
<time>2026-09-04T06:47:03Z</time>
</trkpt>
</trkseg>
</trk>
</gpx>
